Observation data for Clyde on 11/11/2019      Previous  Date       Current Mesonet Observations  Soil Data  Daily Summary Page  Observations in Plain Language
KCL2 110600Z 20015KT 16/13 A2988 RMK A01 T01600134  RH  084%=      5-min Rain = 0
KCL2 110601Z 19015G24KT 16/13 A2988 RMK A01 T01590134  RH  085%=      5-min Rain = 0
KCL2 110602Z 20016G21KT 16/13 A2988 RMK A01 T01590134  RH  085%=      5-min Rain = 0
KCL2 110603Z 19016G22KT 16/13 A2988 RMK A01 T01590134  RH  085%=      5-min Rain = 0
KCL2 110604Z 19018G24KT 16/13 A2988 RMK A01 T01600134  RH  085%=      5-min Rain = 0
KCL2 110605Z 19017KT 16/13 A2988 RMK A01 T01600134  RH  085%=      5-min Rain = 0
KCL2 110606Z 19015KT 16/13 A2988 RMK A01 T01600134  RH  084%=      5-min Rain = 0
KCL2 110607Z 20016KT 16/13 A2988 RMK A01 T01600134  RH  085%=      5-min Rain = 0
KCL2 110608Z 20018G25KT 16/13 A2988 RMK A01 T01590133  RH  085%=      5-min Rain = 0
KCL2 110609Z 19016KT 16/13 A2988 RMK A01 T01590133  RH  085%=      5-min Rain = 0
KCL2 110610Z 20017G22KT 16/13 A2988 RMK A01 T01590134  RH  085%=      5-min Rain = 0
KCL2 110611Z 20017G22KT 16/13 A2988 RMK A01 T01590134  RH  085%=      5-min Rain = 0
KCL2 110612Z 19016KT 16/13 A2988 RMK A01 T01590133  RH  084%=      5-min Rain = 0
KCL2 110613Z 19017G25KT 16/13 A2988 RMK A01 T01590133  RH  084%=      5-min Rain = 0
KCL2 110614Z 19016KT 16/13 A2988 RMK A01 T01590134  RH  085%=      5-min Rain = 0
KCL2 110615Z 19018G24KT 16/13 A2988 RMK A01 T01590134  RH  085%=      5-min Rain = 0
KCL2 110616Z 19018G24KT 16/13 A2988 RMK A01 T01590133  RH  085%=      5-min Rain = 0
KCL2 110617Z 20017G22KT 16/13 A2988 RMK A01 T01590133  RH  085%=      5-min Rain = 0
KCL2 110618Z 20013G18KT 16/13 A2988 RMK A01 T01590133  RH  085%=      5-min Rain = 0
KCL2 110619Z 20013KT 16/13 A2988 RMK A01 T01580133  RH  085%=      5-min Rain = 0
KCL2 110620Z 19016G22KT 16/13 A2988 RMK A01 T01580133  RH  085%=      5-min Rain = 0
KCL2 110621Z 20016KT 16/13 A2988 RMK A01 T01580133  RH  085%=      5-min Rain = 0
KCL2 110622Z 19015G23KT 16/13 A2988 RMK A01 T01570133  RH  085%=      5-min Rain = 0
KCL2 110623Z 19017G22KT 16/13 A2987 RMK A01 T01570133  RH  085%=      5-min Rain = 0
KCL2 110624Z 19015KT 16/13 A2987 RMK A01 T01570133  RH  085%=      5-min Rain = 0
KCL2 110625Z 19014KT 16/13 A2988 RMK A01 T01570133  RH  085%=      5-min Rain = 0
KCL2 110626Z 19017G25KT 16/13 A2988 RMK A01 T01570133  RH  086%=      5-min Rain = 0
KCL2 110627Z 20016G21KT 16/13 A2987 RMK A01 T01570133  RH  086%=      5-min Rain = 0
KCL2 110628Z 19016KT 16/13 A2988 RMK A01 T01570133  RH  086%=      5-min Rain = 0
KCL2 110629Z 19017G24KT 16/13 A2988 RMK A01 T01570133  RH  086%=      5-min Rain = 0
KCL2 110630Z 20017KT 16/13 A2988 RMK A01 T01570133  RH  086%=      5-min Rain = 0
KCL2 110631Z 19014G22KT 16/13 A2988 RMK A01 T01560133  RH  086%=      5-min Rain = 0
KCL2 110632Z 20014G20KT 16/13 A2988 RMK A01 T01570133  RH  086%=      5-min Rain = 0
KCL2 110633Z 20017G22KT 16/13 A2988 RMK A01 T01560133  RH  086%=      5-min Rain = 0
KCL2 110634Z 20017KT 16/13 A2987 RMK A01 T01560133  RH  086%=      5-min Rain = 0
KCL2 110635Z 20016KT 16/13 A2987 RMK A01 T01560133  RH  086%=      5-min Rain = 0
KCL2 110636Z 20013KT 16/13 A2988 RMK A01 T01560133  RH  086%=      5-min Rain = 0
KCL2 110637Z 19012KT 16/13 A2988 RMK A01 T01560132  RH  086%=      5-min Rain = 0
KCL2 110638Z 20016KT 16/13 A2988 RMK A01 T01550132  RH  086%=      5-min Rain = 0
KCL2 110639Z 20014G19KT 16/13 A2988 RMK A01 T01550133  RH  087%=      5-min Rain = 0
KCL2 110640Z 20013G20KT 16/13 A2988 RMK A01 T01550132  RH  087%=      5-min Rain = 0
KCL2 110641Z 19016G22KT 16/13 A2988 RMK A01 T01550133  RH  087%=      5-min Rain = 0
KCL2 110642Z 20015KT 16/13 A2987 RMK A01 T01550133  RH  087%=      5-min Rain = 0
KCL2 110643Z 20017G23KT 16/13 A2987 RMK A01 T01550133  RH  087%=      5-min Rain = 0
KCL2 110644Z 20015G20KT 16/13 A2987 RMK A01 T01550133  RH  087%=      5-min Rain = 0
KCL2 110645Z 19017G22KT 16/13 A2987 RMK A01 T01550133  RH  087%=      5-min Rain = 0
KCL2 110646Z 19019KT 16/13 A2987 RMK A01 T01550132  RH  087%=      5-min Rain = 0
KCL2 110647Z 19018KT 16/13 A2987 RMK A01 T01550133  RH  087%=      5-min Rain = 0
KCL2 110648Z 19014KT 16/13 A2987 RMK A01 T01550133  RH  086%=      5-min Rain = 0
KCL2 110649Z 20015KT 16/13 A2987 RMK A01 T01550133  RH  086%=      5-min Rain = 0
KCL2 110650Z 19019KT 16/13 A2987 RMK A01 T01550133  RH  087%=      5-min Rain = 0
KCL2 110651Z 20017G22KT 16/13 A2987 RMK A01 T01550133  RH  087%=      5-min Rain = 0
KCL2 110652Z 19015KT 16/13 A2987 RMK A01 T01550132  RH  087%=      5-min Rain = 0
KCL2 110653Z 19018G23KT 16/13 A2987 RMK A01 T01550133  RH  087%=      5-min Rain = 0
KCL2 110654Z 19018KT 16/13 A2987 RMK A01 T01550133  RH  087%=      5-min Rain = 0
KCL2 110655Z 20019KT 16/13 A2987 RMK A01 T01550133  RH  087%=      5-min Rain = 0
KCL2 110656Z 19017G23KT 16/13 A2987 RMK A01 T01550133  RH  087%=      5-min Rain = 0
KCL2 110657Z 20017KT 16/13 A2987 RMK A01 T01550133  RH  086%=      5-min Rain = 0
KCL2 110658Z 20014G19KT 16/13 A2987 RMK A01 T01550132  RH  086%=      5-min Rain = 0
KCL2 110659Z 19016KT 16/13 A2987 RMK A01 T01550133  RH  087%=      5-min Rain = 0
KCL2 110700Z 19018KT 16/13 A2987 RMK A01 T01550133  RH  087%=      5-min Rain = 0
KCL2 110701Z 19019KT 16/13 A2987 RMK A01 T01550133  RH  087%=      5-min Rain = 0
KCL2 110702Z 19017KT 16/13 A2987 RMK A01 T01550133  RH  087%=      5-min Rain = 0
KCL2 110703Z 20017KT 16/13 A2987 RMK A01 T01550133  RH  087%=      5-min Rain = 0
KCL2 110704Z 20015KT 16/13 A2987 RMK A01 T01550133  RH  087%=      5-min Rain = 0
KCL2 110705Z 20014KT 15/13 A2987 RMK A01 T01540133  RH  087%=      5-min Rain = 0
KCL2 110706Z 19016G21KT 15/13 A2987 RMK A01 T01540133  RH  087%=      5-min Rain = 0
KCL2 110707Z 20015G22KT 15/13 A2987 RMK A01 T01540133  RH  087%=      5-min Rain = 0
KCL2 110708Z 19017KT 15/13 A2987 RMK A01 T01540133  RH  087%=      5-min Rain = 0
KCL2 110709Z 20016KT 15/13 A2987 RMK A01 T01540133  RH  087%=      5-min Rain = 0
KCL2 110710Z 20016G21KT 15/13 A2987 RMK A01 T01540133  RH  087%=      5-min Rain = 0
KCL2 110711Z 20013KT 15/13 A2987 RMK A01 T01540133  RH  087%=      5-min Rain = 0
KCL2 110712Z 19016G22KT 15/13 A2987 RMK A01 T01540133  RH  087%=      5-min Rain = 0
KCL2 110713Z 20014G20KT 15/13 A2987 RMK A01 T01540133  RH  087%=      5-min Rain = 0
KCL2 110714Z 20016KT 15/13 A2987 RMK A01 T01540133  RH  087%=      5-min Rain = 0
KCL2 110715Z 19015KT 15/13 A2987 RMK A01 T01530133  RH  088%=      5-min Rain = 0
KCL2 110716Z 20019G24KT 15/13 A2987 RMK A01 T01530133  RH  087%=      5-min Rain = 0
KCL2 110717Z 20014G19KT 15/13 A2987 RMK A01 T01540133  RH  087%=      5-min Rain = 0
KCL2 110718Z 19017G23KT 15/13 A2987 RMK A01 T01540133  RH  087%=      5-min Rain = 0
KCL2 110719Z 19017KT 15/13 A2987 RMK A01 T01540133  RH  087%=      5-min Rain = 0
KCL2 110720Z 19017G22KT 15/13 A2987 RMK A01 T01540133  RH  087%=      5-min Rain = 0
KCL2 110721Z 20016KT 15/13 A2987 RMK A01 T01540133  RH  088%=      5-min Rain = 0
KCL2 110722Z 19015KT 15/13 A2987 RMK A01 T01540133  RH  087%=      5-min Rain = 0
KCL2 110723Z 20015G20KT 15/13 A2987 RMK A01 T01530133  RH  088%=      5-min Rain = 0
KCL2 110724Z 19017KT 15/13 A2987 RMK A01 T01530133  RH  088%=      5-min Rain = 0
KCL2 110725Z 19013G18KT 15/13 A2987 RMK A01 T01530133  RH  088%=      5-min Rain = 0
KCL2 110726Z 20017G23KT 15/13 A2987 RMK A01 T01530133  RH  088%=      5-min Rain = 0
KCL2 110727Z 19013KT 15/13 A2987 RMK A01 T01530133  RH  088%=      5-min Rain = 0
KCL2 110728Z 19014G20KT 15/13 A2987 RMK A01 T01530133  RH  088%=      5-min Rain = 0
KCL2 110729Z 19014KT 15/13 A2987 RMK A01 T01520133  RH  088%=      5-min Rain = 0
KCL2 110730Z 19018KT 15/13 A2987 RMK A01 T01520133  RH  088%=      5-min Rain = 0
KCL2 110731Z 19018KT 15/13 A2987 RMK A01 T01520133  RH  088%=      5-min Rain = 0
KCL2 110732Z 20020KT 15/13 A2987 RMK A01 T01530133  RH  088%=      5-min Rain = 0
KCL2 110733Z 19014G19KT 15/13 A2987 RMK A01 T01530133  RH  088%=      5-min Rain = 0
KCL2 110734Z 19014KT 15/13 A2987 RMK A01 T01530133  RH  088%=      5-min Rain = 0
KCL2 110735Z 19015KT 15/13 A2987 RMK A01 T01530133  RH  088%=      5-min Rain = 0
KCL2 110736Z 19016G22KT 15/13 A2987 RMK A01 T01530133  RH  088%=      5-min Rain = 0
KCL2 110737Z 20016KT 15/13 A2987 RMK A01 T01520133  RH  088%=      5-min Rain = 0
KCL2 110738Z 19015KT 15/13 A2987 RMK A01 T01530133  RH  088%=      5-min Rain = 0
KCL2 110739Z 19014G19KT 15/13 A2987 RMK A01 T01530133  RH  088%=      5-min Rain = 0
KCL2 110740Z 19015KT 15/13 A2987 RMK A01 T01520133  RH  088%=      5-min Rain = 0
KCL2 110741Z 19016KT 15/13 A2987 RMK A01 T01520133  RH  089%=      5-min Rain = 0
KCL2 110742Z 19017KT 15/13 A2987 RMK A01 T01520133  RH  089%=      5-min Rain = 0
KCL2 110743Z 19013KT 15/13 A2987 RMK A01 T01520133  RH  089%=      5-min Rain = 0
KCL2 110744Z 19014KT 15/13 A2987 RMK A01 T01520133  RH  089%=      5-min Rain = 0
KCL2 110745Z 19013KT 15/13 A2987 RMK A01 T01520133  RH  089%=      5-min Rain = 0
KCL2 110746Z 19017G23KT 15/13 A2987 RMK A01 T01510133  RH  089%=      5-min Rain = 0
KCL2 110747Z 20018KT 15/13 A2987 RMK A01 T01510133  RH  089%=      5-min Rain = 0
KCL2 110748Z 19015KT 15/13 A2987 RMK A01 T01510133  RH  089%=      5-min Rain = 0
KCL2 110749Z 19014KT 15/13 A2987 RMK A01 T01510133  RH  089%=      5-min Rain = 0
KCL2 110750Z 19013KT 15/13 A2987 RMK A01 T01510133  RH  089%=      5-min Rain = 0
KCL2 110751Z 20015G21KT 15/13 A2987 RMK A01 T01510133  RH  089%=      5-min Rain = 0
KCL2 110752Z 19015G21KT 15/13 A2987 RMK A01 T01520134  RH  089%=      5-min Rain = 0
KCL2 110753Z 19018G23KT 15/13 A2987 RMK A01 T01520134  RH  089%=      5-min Rain = 0
KCL2 110754Z 20017KT 15/13 A2987 RMK A01 T01520134  RH  089%=      5-min Rain = 0
KCL2 110755Z 19016KT 15/13 A2987 RMK A01 T01520134  RH  089%=      5-min Rain = 0
KCL2 110756Z 20015KT 15/13 A2987 RMK A01 T01520134  RH  089%=      5-min Rain = 0
KCL2 110757Z 20014G19KT 15/13 A2987 RMK A01 T01520133  RH  089%=      5-min Rain = 0
KCL2 110758Z 20016G23KT 15/13 A2987 RMK A01 T01520134  RH  089%=      5-min Rain = 0
KCL2 110759Z 20015G20KT 15/13 A2987 RMK A01 T01520134  RH  089%=      5-min Rain = 0
KCL2 110800Z 19016G21KT 15/13 A2987 RMK A01 T01520134  RH  089%=      5-min Rain = 0
KCL2 110801Z 20017KT 15/14 A2987 RMK A01 T01530135  RH  089%=      5-min Rain = 0
KCL2 110802Z 20015G22KT 15/13 A2987 RMK A01 T01530134  RH  088%=      5-min Rain = 0
KCL2 110803Z 20018G23KT 15/13 A2987 RMK A01 T01530134  RH  088%=      5-min Rain = 0
KCL2 110804Z 20015KT 15/13 A2987 RMK A01 T01530134  RH  088%=      5-min Rain = 0
KCL2 110805Z 20019G25KT 15/13 A2987 RMK A01 T01530134  RH  088%=      5-min Rain = 0
KCL2 110806Z 20014G21KT 15/13 A2987 RMK A01 T01530134  RH  088%=      5-min Rain = 0
KCL2 110807Z 20017G22KT 15/13 A2987 RMK A01 T01530134  RH  088%=      5-min Rain = 0
KCL2 110808Z 20018G23KT 15/13 A2987 RMK A01 T01530134  RH  088%=      5-min Rain = 0
KCL2 110809Z 20019G24KT 15/14 A2987 RMK A01 T01530135  RH  088%=      5-min Rain = 0
KCL2 110810Z 20016KT 15/13 A2987 RMK A01 T01530134  RH  088%=      5-min Rain = 0
KCL2 110811Z 20020KT 15/13 A2987 RMK A01 T01530134  RH  088%=      5-min Rain = 0
KCL2 110812Z 20016KT 15/14 A2987 RMK A01 T01540135  RH  088%=      5-min Rain = 0
KCL2 110813Z 20016G21KT 15/14 A2987 RMK A01 T01540135  RH  088%=      5-min Rain = 0
KCL2 110814Z 21014KT 15/14 A2987 RMK A01 T01540135  RH  088%=      5-min Rain = 0
KCL2 110815Z 20015G21KT 15/14 A2987 RMK A01 T01540135  RH  089%=      5-min Rain = 0
KCL2 110816Z 21017G22KT 15/13 A2987 RMK A01 T01530134  RH  089%=      5-min Rain = 0
KCL2 110817Z 20015KT 15/13 A2988 RMK A01 T01530134  RH  089%=      5-min Rain = 0
KCL2 110818Z 20019G25KT 15/13 A2987 RMK A01 T01530134  RH  089%=      5-min Rain = 0
KCL2 110819Z 21017KT 15/14 A2987 RMK A01 T01530135  RH  089%=      5-min Rain = 0
KCL2 110820Z 20017G25KT 15/14 A2987 RMK A01 T01540135  RH  088%=      5-min Rain = 0
KCL2 110821Z 20018KT 15/14 A2987 RMK A01 T01540135  RH  088%=      5-min Rain = 0
KCL2 110822Z 21019G24KT 15/14 A2987 RMK A01 T01540135  RH  089%=      5-min Rain = 0
KCL2 110823Z 20018G24KT 15/14 A2987 RMK A01 T01540135  RH  088%=      5-min Rain = 0
KCL2 110824Z 20017G22KT 15/14 A2987 RMK A01 T01540135  RH  088%=      5-min Rain = 0
KCL2 110825Z 20015KT 15/14 A2987 RMK A01 T01540135  RH  088%=      5-min Rain = 0
KCL2 110826Z 21014KT 15/14 A2987 RMK A01 T01540135  RH  088%=      5-min Rain = 0
KCL2 110827Z 21015KT 15/14 A2987 RMK A01 T01540135  RH  089%=      5-min Rain = 0
KCL2 110828Z 21015KT 15/14 A2987 RMK A01 T01540135  RH  089%=      5-min Rain = 0
KCL2 110829Z 20015KT 15/14 A2987 RMK A01 T01540136  RH  089%=      5-min Rain = 0
KCL2 110830Z 20013G18KT 15/14 A2987 RMK A01 T01540135  RH  089%=      5-min Rain = 0
KCL2 110831Z 21014KT 15/14 A2987 RMK A01 T01530135  RH  089%=      5-min Rain = 0
KCL2 110832Z 21015KT 15/14 A2987 RMK A01 T01530135  RH  089%=      5-min Rain = 0
KCL2 110833Z 22014KT 15/14 A2987 RMK A01 T01530135  RH  089%=      5-min Rain = 0
KCL2 110834Z 21013G18KT 15/14 A2987 RMK A01 T01530135  RH  089%=      5-min Rain = 0
KCL2 110835Z 21013KT 15/14 A2987 RMK A01 T01530135  RH  089%=      5-min Rain = 0
KCL2 110836Z 21013KT 15/14 A2987 RMK A01 T01530135  RH  089%=      5-min Rain = 0
KCL2 110837Z 21017KT 15/14 A2987 RMK A01 T01520135  RH  089%=      5-min Rain = 0
KCL2 110838Z 20014KT 15/14 A2987 RMK A01 T01530135  RH  089%=      5-min Rain = 0
KCL2 110839Z 21013KT 15/14 A2987 RMK A01 T01520135  RH  089%=      5-min Rain = 0
KCL2 110840Z 20014KT 15/14 A2987 RMK A01 T01520135  RH  089%=      5-min Rain = 0
KCL2 110841Z 21015KT 15/14 A2987 RMK A01 T01520135  RH  089%=      5-min Rain = 0
KCL2 110842Z 21013KT 15/14 A2987 RMK A01 T01530135  RH  089%=      5-min Rain = 0
KCL2 110843Z 21015KT 15/14 A2987 RMK A01 T01530135  RH  089%=      5-min Rain = 0
KCL2 110844Z 20014KT 15/14 A2987 RMK A01 T01530135  RH  089%=      5-min Rain = 0
KCL2 110845Z 21014KT 15/14 A2987 RMK A01 T01530135  RH  089%=      5-min Rain = 0
KCL2 110846Z 21011KT 15/14 A2987 RMK A01 T01530135  RH  089%=      5-min Rain = 0
KCL2 110847Z 21011KT 15/14 A2987 RMK A01 T01530135  RH  089%=      5-min Rain = 0
KCL2 110848Z 21013KT 15/14 A2987 RMK A01 T01520135  RH  090%=      5-min Rain = 0
KCL2 110849Z 21014KT 15/14 A2987 RMK A01 T01520135  RH  090%=      5-min Rain = 0
KCL2 110850Z 21014G19KT 15/14 A2987 RMK A01 T01520135  RH  089%=      5-min Rain = 0
KCL2 110851Z 21016G21KT 15/14 A2987 RMK A01 T01520135  RH  089%=      5-min Rain = 0
KCL2 110852Z 21017KT 15/14 A2987 RMK A01 T01530136  RH  089%=      5-min Rain = 0
KCL2 110853Z 21013KT 15/14 A2987 RMK A01 T01530135  RH  089%=      5-min Rain = 0
KCL2 110854Z 20014KT 15/14 A2987 RMK A01 T01530135  RH  089%=      5-min Rain = 0
KCL2 110855Z 21013G18KT 15/14 A2987 RMK A01 T01540136  RH  089%=      5-min Rain = 0
KCL2 110856Z 21014KT 15/14 A2987 RMK A01 T01530136  RH  089%=      5-min Rain = 0
KCL2 110857Z 21014KT 15/14 A2987 RMK A01 T01530135  RH  089%=      5-min Rain = 0
KCL2 110858Z 21014KT 15/14 A2987 RMK A01 T01530135  RH  089%=      5-min Rain = 0
KCL2 110859Z 20012KT 15/14 A2987 RMK A01 T01530135  RH  089%=      5-min Rain = 0
KCL2 110900Z 20014KT 15/14 A2987 RMK A01 T01530135  RH  089%=      5-min Rain = 0
KCL2 110901Z 21013KT 15/14 A2987 RMK A01 T01530135  RH  089%=      5-min Rain = 0
KCL2 110902Z 21013KT 15/14 A2987 RMK A01 T01530135  RH  089%=      5-min Rain = 0
KCL2 110903Z 21011KT 15/14 A2987 RMK A01 T01530135  RH  089%=      5-min Rain = 0
KCL2 110904Z 21010KT 15/14 A2987 RMK A01 T01530135  RH  089%=      5-min Rain = 0
KCL2 110905Z 21015G20KT 15/14 A2987 RMK A01 T01530135  RH  089%=      5-min Rain = 0
KCL2 110906Z 20013KT 15/14 A2987 RMK A01 T01530136  RH  089%=      5-min Rain = 0
KCL2 110907Z 20013KT 15/14 A2987 RMK A01 T01530135  RH  089%=      5-min Rain = 0
KCL2 110908Z 20014KT 15/14 A2987 RMK A01 T01530135  RH  089%=      5-min Rain = 0
KCL2 110909Z 21012KT 15/14 A2987 RMK A01 T01530135  RH  089%=      5-min Rain = 0
KCL2 110910Z 20013KT 15/14 A2987 RMK A01 T01530135  RH  089%=      5-min Rain = 0
KCL2 110911Z 20014KT 15/14 A2987 RMK A01 T01530136  RH  089%=      5-min Rain = 0
KCL2 110912Z 20013KT 15/14 A2987 RMK A01 T01540136  RH  089%=      5-min Rain = 0
KCL2 110913Z 20015KT 15/14 A2987 RMK A01 T01530136  RH  089%=      5-min Rain = 0
KCL2 110914Z 21013KT 15/14 A2987 RMK A01 T01530136  RH  089%=      5-min Rain = 0
KCL2 110915Z 21013G18KT 15/14 A2987 RMK A01 T01530136  RH  089%=      5-min Rain = 0
KCL2 110916Z 20014KT 15/14 A2987 RMK A01 T01530136  RH  089%=      5-min Rain = 0
KCL2 110917Z 21012KT 15/14 A2987 RMK A01 T01540136  RH  089%=      5-min Rain = 0
KCL2 110918Z 20012KT 15/14 A2987 RMK A01 T01530135  RH  089%=      5-min Rain = 0
KCL2 110919Z 21015KT 15/14 A2987 RMK A01 T01530136  RH  090%=      5-min Rain = 0
KCL2 110920Z 21013KT 15/14 A2987 RMK A01 T01530136  RH  090%=      5-min Rain = 0
KCL2 110921Z 20015KT 15/14 A2987 RMK A01 T01530136  RH  089%=      5-min Rain = 0
KCL2 110922Z 21013KT 15/14 A2987 RMK A01 T01540136  RH  089%=      5-min Rain = 0
KCL2 110923Z 20010KT 15/14 A2987 RMK A01 T01540136  RH  089%=      5-min Rain = 0
KCL2 110924Z 20010KT 15/14 A2987 RMK A01 T01540136  RH  089%=      5-min Rain = 0
KCL2 110925Z 20015KT 15/14 A2987 RMK A01 T01530136  RH  089%=      5-min Rain = 0
KCL2 110926Z 21013KT 15/14 A2987 RMK A01 T01530136  RH  089%=      5-min Rain = 0
KCL2 110927Z 21013KT 15/14 A2987 RMK A01 T01530136  RH  089%=      5-min Rain = 0
KCL2 110928Z 20013KT 15/14 A2987 RMK A01 T01530136  RH  089%=      5-min Rain = 0
KCL2 110929Z 21013KT 15/14 A2987 RMK A01 T01530136  RH  089%=      5-min Rain = 0
KCL2 110930Z 21013KT 15/14 A2987 RMK A01 T01530136  RH  089%=      5-min Rain = 0
KCL2 110931Z 20011KT 15/14 A2987 RMK A01 T01530136  RH  089%=      5-min Rain = 0
KCL2 110932Z 20009KT 15/14 A2987 RMK A01 T01540136  RH  089%=      5-min Rain = 0
KCL2 110933Z 20012KT 15/14 A2987 RMK A01 T01530136  RH  089%=      5-min Rain = 0
KCL2 110934Z 21014KT 15/14 A2987 RMK A01 T01530136  RH  090%=      5-min Rain = 0
KCL2 110935Z 20012KT 15/14 A2987 RMK A01 T01530136  RH  090%=      5-min Rain = 0
KCL2 110936Z 21012KT 15/14 A2987 RMK A01 T01530136  RH  090%=      5-min Rain = 0
KCL2 110937Z 20012KT 15/14 A2987 RMK A01 T01530136  RH  090%=      5-min Rain = 0
KCL2 110938Z 20011KT 15/14 A2987 RMK A01 T01530136  RH  090%=      5-min Rain = 0
KCL2 110939Z 20011KT 15/14 A2987 RMK A01 T01530136  RH  090%=      5-min Rain = 0
KCL2 110940Z 20010KT 15/14 A2987 RMK A01 T01530136  RH  090%=      5-min Rain = 0
KCL2 110941Z 20010KT 15/14 A2987 RMK A01 T01530136  RH  090%=      5-min Rain = 0
KCL2 110942Z 20011KT 15/14 A2987 RMK A01 T01530136  RH  090%=      5-min Rain = 0
KCL2 110943Z 20012KT 15/14 A2987 RMK A01 T01520136  RH  090%=      5-min Rain = 0
KCL2 110944Z 20013KT 15/14 A2987 RMK A01 T01530136  RH  090%=      5-min Rain = 0
KCL2 110945Z 20013G18KT 15/14 A2987 RMK A01 T01520136  RH  090%=      5-min Rain = 0
KCL2 110946Z 20013KT 15/14 A2987 RMK A01 T01530136  RH  090%=      5-min Rain = 0
KCL2 110947Z 20012KT 15/14 A2987 RMK A01 T01530136  RH  090%=      5-min Rain = 0
KCL2 110948Z 20012KT 15/14 A2987 RMK A01 T01530136  RH  090%=      5-min Rain = 0
KCL2 110949Z 20011KT 15/14 A2987 RMK A01 T01530136  RH  090%=      5-min Rain = 0
KCL2 110950Z 20010KT 15/14 A2987 RMK A01 T01530136  RH  090%=      5-min Rain = 0
KCL2 110951Z 21012G17KT 15/14 A2987 RMK A01 T01520136  RH  090%=      5-min Rain = 0
KCL2 110952Z 21012KT 15/14 A2987 RMK A01 T01520136  RH  090%=      5-min Rain = 0
KCL2 110953Z 20012KT 15/14 A2987 RMK A01 T01520136  RH  090%=      5-min Rain = 0
KCL2 110954Z 21011KT 15/14 A2987 RMK A01 T01520136  RH  090%=      5-min Rain = 0
KCL2 110955Z 20013KT 15/14 A2987 RMK A01 T01520136  RH  090%=      5-min Rain = 0
KCL2 110956Z 21010KT 15/14 A2988 RMK A01 T01520136  RH  090%=      5-min Rain = 0
KCL2 110957Z 21010KT 15/14 A2987 RMK A01 T01530136  RH  090%=      5-min Rain = 0
KCL2 110958Z 20009KT 15/14 A2988 RMK A01 T01520136  RH  090%=      5-min Rain = 0
KCL2 110959Z 21009KT 15/14 A2988 RMK A01 T01520136  RH  090%=      5-min Rain = 0
KCL2 111000Z 20009KT 15/14 A2988 RMK A01 T01520136  RH  090%=      5-min Rain = 0
KCL2 111001Z 20011KT 15/14 A2987 RMK A01 T01510136  RH  090%=      5-min Rain = 0
KCL2 111002Z 21010KT 15/14 A2987 RMK A01 T01510136  RH  091%=      5-min Rain = 0
KCL2 111003Z 20011KT 15/14 A2987 RMK A01 T01510136  RH  091%=      5-min Rain = 0
KCL2 111004Z 20013KT 15/14 A2987 RMK A01 T01510136  RH  091%=      5-min Rain = 0
KCL2 111005Z 20012KT 15/14 A2987 RMK A01 T01520137  RH  091%=      5-min Rain = 0
KCL2 111006Z 20010KT 15/14 A2987 RMK A01 T01520136  RH  091%=      5-min Rain = 0
KCL2 111007Z 20012G17KT 15/14 A2987 RMK A01 T01510136  RH  091%=      5-min Rain = 0
KCL2 111008Z 20014G19KT 15/14 A2987 RMK A01 T01520137  RH  091%=      5-min Rain = 0
KCL2 111009Z 20010KT 15/14 A2987 RMK A01 T01520137  RH  090%=      5-min Rain = 0
KCL2 111010Z 21012KT 15/14 A2987 RMK A01 T01520136  RH  090%=      5-min Rain = 0
KCL2 111011Z 20011KT 15/14 A2987 RMK A01 T01520137  RH  090%=      5-min Rain = 0
KCL2 111012Z 20010G16KT 15/14 A2987 RMK A01 T01530137  RH  090%=      5-min Rain = 0
KCL2 111013Z 20011G16KT 15/14 A2987 RMK A01 T01530137  RH  090%=      5-min Rain = 0
KCL2 111014Z 20010KT 15/14 A2987 RMK A01 T01520137  RH  090%=      5-min Rain = 0
KCL2 111015Z 20009KT 15/14 A2987 RMK A01 T01530137  RH  090%=      5-min Rain = 0
KCL2 111016Z 20011KT 15/14 A2987 RMK A01 T01520137  RH  090%=      5-min Rain = 0
KCL2 111017Z 20011KT 15/14 A2987 RMK A01 T01520137  RH  090%=      5-min Rain = 0
KCL2 111018Z 21010KT 15/14 A2987 RMK A01 T01520137  RH  091%=      5-min Rain = 0
KCL2 111019Z 20008KT 15/14 A2987 RMK A01 T01520137  RH  091%=      5-min Rain = 0
KCL2 111020Z 20009KT 15/14 A2987 RMK A01 T01530137  RH  091%=      5-min Rain = 0
KCL2 111021Z 20008KT 15/14 A2987 RMK A01 T01520137  RH  091%=      5-min Rain = 0
KCL2 111022Z 20011KT 15/14 A2987 RMK A01 T01520137  RH  091%=      5-min Rain = 0
KCL2 111023Z 20008KT 15/14 A2987 RMK A01 T01520137  RH  091%=      5-min Rain = 0
KCL2 111024Z 20009KT 15/14 A2987 RMK A01 T01520137  RH  091%=      5-min Rain = 0
KCL2 111025Z 20010KT 15/14 A2987 RMK A01 T01520137  RH  091%=      5-min Rain = 0
KCL2 111026Z 20010KT 15/14 A2987 RMK A01 T01520137  RH  091%=      5-min Rain = 0
KCL2 111027Z 20009KT 15/14 A2987 RMK A01 T01530138  RH  090%=      5-min Rain = 0
KCL2 111028Z 20009KT 15/14 A2987 RMK A01 T01530137  RH  090%=      5-min Rain = 0
KCL2 111029Z 20011KT 15/14 A2987 RMK A01 T01530137  RH  090%=      5-min Rain = 0
KCL2 111030Z 20008KT 15/14 A2987 RMK A01 T01530138  RH  090%=      5-min Rain = 0
KCL2 111031Z 20010KT 15/14 A2987 RMK A01 T01530137  RH  090%=      5-min Rain = 0
KCL2 111032Z 20010KT 15/14 A2987 RMK A01 T01530138  RH  090%=      5-min Rain = 0
KCL2 111033Z 20008KT 15/14 A2987 RMK A01 T01530137  RH  090%=      5-min Rain = 0
KCL2 111034Z 20009KT 15/14 A2987 RMK A01 T01530138  RH  090%=      5-min Rain = 0
KCL2 111035Z 21010KT 15/14 A2987 RMK A01 T01530138  RH  090%=      5-min Rain = 0
KCL2 111036Z 20010KT 15/14 A2987 RMK A01 T01540138  RH  090%=      5-min Rain = 0
KCL2 111037Z 20010KT 15/14 A2987 RMK A01 T01540138  RH  090%=      5-min Rain = 0
KCL2 111038Z 20009KT 15/14 A2987 RMK A01 T01540138  RH  090%=      5-min Rain = 0
KCL2 111039Z 20010KT 15/14 A2987 RMK A01 T01540138  RH  090%=      5-min Rain = 0
KCL2 111040Z 20010KT 15/14 A2987 RMK A01 T01540138  RH  090%=      5-min Rain = 0
KCL2 111041Z 20010KT 15/14 A2987 RMK A01 T01540138  RH  090%=      5-min Rain = 0
KCL2 111042Z 20009KT 16/14 A2987 RMK A01 T01550138  RH  090%=      5-min Rain = 0
KCL2 111043Z 20009KT 15/14 A2987 RMK A01 T01540138  RH  090%=      5-min Rain = 0
KCL2 111044Z 20011KT 15/14 A2987 RMK A01 T01540138  RH  090%=      5-min Rain = 0
KCL2 111045Z 20011KT 15/14 A2987 RMK A01 T01540138  RH  090%=      5-min Rain = 0
KCL2 111046Z 20010KT 15/14 A2988 RMK A01 T01540138  RH  090%=      5-min Rain = 0
KCL2 111047Z 20011KT 15/14 A2988 RMK A01 T01540138  RH  090%=      5-min Rain = 0
KCL2 111048Z 20011KT 15/14 A2988 RMK A01 T01540138  RH  090%=      5-min Rain = 0
KCL2 111049Z 20011KT 15/14 A2988 RMK A01 T01540138  RH  090%=      5-min Rain = 0
KCL2 111050Z 20011KT 15/14 A2988 RMK A01 T01540138  RH  090%=      5-min Rain = 0
KCL2 111051Z 20009KT 15/14 A2988 RMK A01 T01540138  RH  090%=      5-min Rain = 0
KCL2 111052Z 20011KT 15/14 A2988 RMK A01 T01540138  RH  090%=      5-min Rain = 0
KCL2 111053Z 20011KT 15/14 A2988 RMK A01 T01540139  RH  090%=      5-min Rain = 0
KCL2 111054Z 20011KT 15/14 A2988 RMK A01 T01540139  RH  090%=      5-min Rain = 0
KCL2 111055Z 20010KT 15/14 A2988 RMK A01 T01540139  RH  090%=      5-min Rain = 0
KCL2 111056Z 21009KT 15/14 A2988 RMK A01 T01540139  RH  090%=      5-min Rain = 0
KCL2 111057Z 21010KT 15/14 A2988 RMK A01 T01540139  RH  090%=      5-min Rain = 0
KCL2 111058Z 21009KT 15/14 A2988 RMK A01 T01540138  RH  090%=      5-min Rain = 0
KCL2 111059Z 20009KT 15/14 A2988 RMK A01 T01540139  RH  091%=      5-min Rain = 0
KCL2 111100Z 20010KT 15/14 A2988 RMK A01 T01540139  RH  091%=      5-min Rain = 0
KCL2 111101Z 20008KT 15/14 A2988 RMK A01 T01540138  RH  090%=      5-min Rain = 0
KCL2 111102Z 21009KT 15/14 A2988 RMK A01 T01540138  RH  090%=      5-min Rain = 0
KCL2 111103Z 20010KT 15/14 A2988 RMK A01 T01540138  RH  090%=      5-min Rain = 0
KCL2 111104Z 21010KT 15/14 A2988 RMK A01 T01540139  RH  091%=      5-min Rain = 0
KCL2 111105Z 20010G15KT 15/14 A2988 RMK A01 T01540139  RH  091%=      5-min Rain = 0
KCL2 111106Z 20010KT 15/14 A2988 RMK A01 T01540139  RH  090%=      5-min Rain = 0
KCL2 111107Z 21009KT 16/14 A2988 RMK A01 T01550139  RH  090%=      5-min Rain = 0
KCL2 111108Z 20009KT 16/14 A2988 RMK A01 T01550139  RH  090%=      5-min Rain = 0
KCL2 111109Z 21010KT 16/14 A2988 RMK A01 T01550139  RH  090%=      5-min Rain = 0
KCL2 111110Z 20009KT 16/14 A2988 RMK A01 T01550139  RH  090%=      5-min Rain = 0
KCL2 111111Z 20009KT 16/14 A2988 RMK A01 T01550139  RH  090%=      5-min Rain = 0
KCL2 111112Z 20009KT 16/14 A2988 RMK A01 T01550139  RH  090%=      5-min Rain = 0
KCL2 111113Z 21010KT 16/14 A2989 RMK A01 T01550139  RH  090%=      5-min Rain = 0
KCL2 111114Z 21008KT 16/14 A2989 RMK A01 T01550139  RH  090%=      5-min Rain = 0
KCL2 111115Z 21008KT 16/14 A2989 RMK A01 T01550139  RH  090%=      5-min Rain = 0
KCL2 111116Z 20008KT 16/14 A2989 RMK A01 T01550139  RH  090%=      5-min Rain = 0
KCL2 111117Z 20008KT 16/14 A2989 RMK A01 T01550139  RH  090%=      5-min Rain = 0
KCL2 111118Z 21007KT 16/14 A2989 RMK A01 T01550139  RH  090%=      5-min Rain = 0
KCL2 111119Z 21007KT 16/14 A2989 RMK A01 T01550139  RH  090%=      5-min Rain = 0
KCL2 111120Z 21009KT 16/14 A2989 RMK A01 T01550139  RH  090%=      5-min Rain = 0
KCL2 111121Z 21010KT 16/14 A2989 RMK A01 T01550139  RH  090%=      5-min Rain = 0
KCL2 111122Z 21009KT 16/14 A2989 RMK A01 T01560140  RH  090%=      5-min Rain = 0
KCL2 111123Z 21008KT 16/14 A2989 RMK A01 T01560139  RH  090%=      5-min Rain = 0
KCL2 111124Z 21010KT 16/14 A2989 RMK A01 T01560139  RH  090%=      5-min Rain = 0
KCL2 111125Z 21009KT 16/14 A2989 RMK A01 T01570140  RH  089%=      5-min Rain = 0
KCL2 111126Z 21007KT 16/14 A2989 RMK A01 T01570139  RH  089%=      5-min Rain = 0
KCL2 111127Z 21007KT 16/14 A2989 RMK A01 T01560139  RH  089%=      5-min Rain = 0
KCL2 111128Z 21009KT 16/14 A2989 RMK A01 T01560139  RH  090%=      5-min Rain = 0
KCL2 111129Z 22007KT 16/14 A2989 RMK A01 T01560140  RH  090%=      5-min Rain = 0
KCL2 111130Z 21008KT 16/14 A2989 RMK A01 T01560140  RH  090%=      5-min Rain = 0
KCL2 111131Z 21008KT 16/14 A2989 RMK A01 T01560139  RH  090%=      5-min Rain = 0
KCL2 111132Z 21007KT 16/14 A2989 RMK A01 T01560140  RH  090%=      5-min Rain = 0
KCL2 111133Z 22007KT 16/14 A299 RMK A01 T01560139  RH  090%=      5-min Rain = 0
KCL2 111134Z 22006KT 16/14 A299 RMK A01 T01560139  RH  090%=      5-min Rain = 0
KCL2 111135Z 22006KT 16/14 A299 RMK A01 T01560139  RH  090%=      5-min Rain = 0
KCL2 111136Z 23006KT 16/14 A299 RMK A01 T01560139  RH  090%=      5-min Rain = 0
KCL2 111137Z 23007KT 16/14 A299 RMK A01 T01560139  RH  090%=      5-min Rain = 0
KCL2 111138Z 23006KT 16/14 A299 RMK A01 T01560139  RH  090%=      5-min Rain = 0
KCL2 111139Z 24007KT 16/14 A2991 RMK A01 T01560140  RH  090%=      5-min Rain = 0
KCL2 111140Z 26006KT 16/14 A2991 RMK A01 T01560140  RH  090%=      5-min Rain = 0
KCL2 111141Z 26006KT 16/14 A2991 RMK A01 T01560139  RH  090%=      5-min Rain = 0
KCL2 111142Z 26006KT 16/14 A2991 RMK A01 T01560139  RH  090%=      5-min Rain = 0
KCL2 111143Z 26006KT 16/14 A2991 RMK A01 T01560139  RH  090%=      5-min Rain = 0
KCL2 111144Z 27005KT 16/14 A2992 RMK A01 T01560139  RH  090%=      5-min Rain = 0
KCL2 111145Z 27005KT 16/14 A2992 RMK A01 T01550139  RH  090%=      5-min Rain = 0
KCL2 111146Z 26006KT 16/14 A2992 RMK A01 T01550139  RH  090%=      5-min Rain = 0
KCL2 111147Z 25006KT 16/14 A2992 RMK A01 T01550139  RH  091%=      5-min Rain = 0
KCL2 111148Z 25008KT 15/14 A2992 RMK A01 T01540139  RH  091%=      5-min Rain = 0
KCL2 111149Z 25008KT 15/14 A2992 RMK A01 T01540139  RH  091%=      5-min Rain = 0
KCL2 111150Z 24010KT 15/14 A2992 RMK A01 T01540139  RH  091%=      5-min Rain = 0
KCL2 111151Z 24010KT 15/14 A2992 RMK A01 T01540140  RH  091%=      5-min Rain = 0
KCL2 111152Z 25010KT 16/14 A2992 RMK A01 T01550140  RH  091%=      5-min Rain = 0
KCL2 111153Z 25010KT 16/14 A2992 RMK A01 T01550140  RH  091%=      5-min Rain = 0
KCL2 111154Z 24008KT 16/14 A2992 RMK A01 T01550140  RH  091%=      5-min Rain = 0
KCL2 111155Z 25009KT 16/14 A2993 RMK A01 T01550140  RH  091%=      5-min Rain = 0
KCL2 111156Z 25010KT 16/14 A2993 RMK A01 T01550140  RH  091%=      5-min Rain = 0
KCL2 111157Z 25008KT 16/14 A2993 RMK A01 T01550140  RH  091%=      5-min Rain = 0
KCL2 111158Z 25008KT 15/14 A2993 RMK A01 T01540140  RH  091%=      5-min Rain = 0
KCL2 111159Z 25009KT 15/14 A2993 RMK A01 T01540140  RH  091%=      5-min Rain = 0
KCL2 111200Z 25008KT 15/14 A2993 RMK A01 T01540140  RH  091%=      5-min Rain = 0
KCL2 111201Z 26008KT 15/14 A2993 RMK A01 T01540139  RH  091%=      5-min Rain = 0
KCL2 111202Z 26008KT 15/14 A2993 RMK A01 T01530139  RH  091%=      5-min Rain = 0
KCL2 111203Z 26008KT 15/14 A2993 RMK A01 T01530139  RH  091%=      5-min Rain = 0
KCL2 111204Z 27007KT 15/14 A2993 RMK A01 T01530139  RH  091%=      5-min Rain = 0
KCL2 111205Z 27006KT 15/14 A2993 RMK A01 T01530139  RH  092%=      5-min Rain = 0
KCL2 111206Z 27007KT 15/14 A2994 RMK A01 T01520139  RH  092%=      5-min Rain = 0
KCL2 111207Z 27007KT 15/14 A2994 RMK A01 T01520138  RH  092%=      5-min Rain = 0
KCL2 111208Z 27006KT 15/14 A2994 RMK A01 T01510138  RH  092%=      5-min Rain = 0
KCL2 111209Z 27006KT 15/14 A2994 RMK A01 T01510138  RH  092%=      5-min Rain = 0
KCL2 111210Z 27007KT 15/14 A2994 RMK A01 T01510138  RH  092%=      5-min Rain = 0
KCL2 111211Z 27006KT 15/14 A2994 RMK A01 T01500138  RH  092%=      5-min Rain = 0
KCL2 111212Z 27009KT 15/14 A2994 RMK A01 T01500138  RH  093%=      5-min Rain = 0
KCL2 111213Z 27008KT 15/14 A2994 RMK A01 T01500139  RH  093%=      5-min Rain = 0
KCL2 111214Z 27009KT 15/14 A2994 RMK A01 T01500138  RH  093%=      5-min Rain = 0
KCL2 111215Z 27008KT 15/14 A2994 RMK A01 T01510139  RH  093%=      5-min Rain = 0
KCL2 111216Z 27008KT 15/14 A2994 RMK A01 T01510139  RH  093%=      5-min Rain = 0
KCL2 111217Z 27009KT 15/14 A2994 RMK A01 T01510139  RH  093%=      5-min Rain = 0
KCL2 111218Z 27008KT 15/14 A2995 RMK A01 T01500139  RH  093%=      5-min Rain = 0
KCL2 111219Z 28009KT 15/14 A2995 RMK A01 T01510139  RH  093%=      5-min Rain = 0
KCL2 111220Z 28009KT 15/14 A2995 RMK A01 T01510139  RH  093%=      5-min Rain = 0
KCL2 111221Z 28009KT 15/14 A2995 RMK A01 T01510139  RH  093%=      5-min Rain = 0
KCL2 111222Z 28009KT 15/14 A2995 RMK A01 T01510139  RH  093%=      5-min Rain = 0
KCL2 111223Z 29009KT 15/14 A2996 RMK A01 T01510139  RH  093%=      5-min Rain = 0
KCL2 111224Z 29009KT 15/14 A2996 RMK A01 T01510139  RH  092%=      5-min Rain = 0
KCL2 111225Z 29009KT 15/14 A2996 RMK A01 T01510139  RH  092%=      5-min Rain = 0
KCL2 111226Z 28010KT 15/14 A2996 RMK A01 T01510139  RH  093%=      5-min Rain = 0
KCL2 111227Z 28009KT 15/14 A2996 RMK A01 T01510139  RH  093%=      5-min Rain = 0
KCL2 111228Z 29009KT 15/14 A2996 RMK A01 T01500139  RH  093%=      5-min Rain = 0
KCL2 111229Z 29008KT 15/14 A2996 RMK A01 T01500139  RH  093%=      5-min Rain = 0
KCL2 111230Z 28009KT 15/14 A2996 RMK A01 T01500139  RH  093%=      5-min Rain = 0
KCL2 111231Z 28009KT 15/14 A2996 RMK A01 T01500139  RH  093%=      5-min Rain = 0
KCL2 111232Z 29008KT 15/14 A2997 RMK A01 T01500139  RH  093%=      5-min Rain = 0
KCL2 111233Z 28007KT 15/14 A2997 RMK A01 T01500139  RH  093%=      5-min Rain = 0
KCL2 111234Z 28008KT 15/14 A2997 RMK A01 T01490138  RH  093%=      5-min Rain = 0
KCL2 111235Z 28007KT 15/14 A2997 RMK A01 T01490138  RH  093%=      5-min Rain = 0
KCL2 111236Z 28008KT 15/14 A2997 RMK A01 T01490138  RH  093%=      5-min Rain = 0
KCL2 111237Z 29009KT 15/14 A2997 RMK A01 T01490138  RH  093%=      5-min Rain = 0
KCL2 111238Z 29009KT 15/14 A2998 RMK A01 T01490138  RH  093%=      5-min Rain = 0
KCL2 111239Z 29008KT 15/14 A2998 RMK A01 T01490138  RH  093%=      5-min Rain = 0
KCL2 111240Z 29008KT 15/14 A2998 RMK A01 T01490138  RH  093%=      5-min Rain = 0
KCL2 111241Z 29008KT 15/14 A2998 RMK A01 T01490138  RH  093%=      5-min Rain = 0
KCL2 111242Z 30008KT 15/14 A2998 RMK A01 T01490138  RH  093%=      5-min Rain = 0
KCL2 111243Z 29008KT 15/14 A2998 RMK A01 T01490138  RH  093%=      5-min Rain = 0
KCL2 111244Z 30007KT 15/14 A2998 RMK A01 T01490139  RH  093%=      5-min Rain = 0
KCL2 111245Z 30008KT 15/14 A2998 RMK A01 T01490138  RH  093%=      5-min Rain = 0
KCL2 111246Z 30008KT 15/14 A2998 RMK A01 T01490138  RH  093%=      5-min Rain = 0
KCL2 111247Z 30008KT 15/14 A2998 RMK A01 T01490138  RH  093%=      5-min Rain = 0
KCL2 111248Z 30008KT 15/14 A2998 RMK A01 T01490138  RH  093%=      5-min Rain = 0
KCL2 111249Z 30008KT 15/14 A2998 RMK A01 T01490138  RH  093%=      5-min Rain = 0
KCL2 111250Z 30007KT 15/14 A2998 RMK A01 T01490138  RH  093%=      5-min Rain = 0
KCL2 111251Z 30009KT 15/14 A2998 RMK A01 T01490138  RH  093%=      5-min Rain = 0
KCL2 111252Z 30009KT 15/14 A2998 RMK A01 T01490138  RH  093%=      5-min Rain = 0
KCL2 111253Z 30009KT 15/14 A2999 RMK A01 T01500138  RH  093%=      5-min Rain = 0
KCL2 111254Z 31009KT 15/14 A2999 RMK A01 T01500138  RH  093%=      5-min Rain = 0
KCL2 111255Z 31010KT 15/14 A2999 RMK A01 T01500138  RH  092%=      5-min Rain = 0
KCL2 111256Z 32013KT 15/14 A2999 RMK A01 T01510138  RH  092%=      5-min Rain = 0
KCL2 111257Z 32012KT 15/14 A2999 RMK A01 T01510138  RH  092%=      5-min Rain = 0
KCL2 111258Z 31012KT 15/14 A2999 RMK A01 T01520138  RH  092%=      5-min Rain = 0
KCL2 111259Z 33014KT 15/14 A2999 RMK A01 T01520138  RH  091%=      5-min Rain = 0
KCL2 111300Z 33015KT 15/14 A2999 RMK A01 T01520138  RH  091%=      5-min Rain = 0
KCL2 111301Z 33015KT 15/14 A30 RMK A01 T01520137  RH  091%=      5-min Rain = 0
KCL2 111302Z 33018KT 15/14 A30 RMK A01 T01520137  RH  091%=      5-min Rain = 0
KCL2 111303Z 34014G19KT 15/14 A30 RMK A01 T01520136  RH  090%=      5-min Rain = 0
KCL2 111304Z 34016KT 15/14 A30 RMK A01 T01520135  RH  090%=      5-min Rain = 0
KCL2 111305Z 34018KT 15/13 A30 RMK A01 T01500131  RH  088%=      5-min Rain = 0
KCL2 111306Z 34021G27KT 15/13 A30 RMK A01 T01480126  RH  086%=      5-min Rain = 0
KCL2 111307Z 33022G27KT 15/12 A30 RMK A01 T01460120  RH  084%=      5-min Rain = 0
KCL2 111308Z 34017G23KT 14/12 A30 RMK A01 T01440116  RH  083%=      5-min Rain = 0
KCL2 111309Z 34019G24KT 14/11 A30 RMK A01 T01420113  RH  083%=      5-min Rain = 0
KCL2 111310Z 34016KT 14/11 A3001 RMK A01 T01400111  RH  083%=      5-min Rain = 0
KCL2 111311Z 33019KT 14/11 A3001 RMK A01 T01390111  RH  083%=      5-min Rain = 0
KCL2 111312Z 34015KT 14/11 A3001 RMK A01 T01380110  RH  083%=      5-min Rain = 0
KCL2 111313Z 34014KT 14/11 A3001 RMK A01 T01370110  RH  083%=      5-min Rain = 0
KCL2 111314Z 33019KT 14/11 A3001 RMK A01 T01370109  RH  084%=      5-min Rain = 0
KCL2 111315Z 34017KT 14/11 A3001 RMK A01 T01360109  RH  083%=      5-min Rain = 0
KCL2 111316Z 34021G26KT 14/11 A3001 RMK A01 T01350108  RH  084%=      5-min Rain = 0
KCL2 111317Z 34018G23KT 14/11 A3001 RMK A01 T01350108  RH  084%=      5-min Rain = 0
KCL2 111318Z 34016KT 14/11 A3001 RMK A01 T01350108  RH  084%=      5-min Rain = 0
KCL2 111319Z 33015KT 13/11 A3001 RMK A01 T01340108  RH  084%=      5-min Rain = 0
KCL2 111320Z 34016G22KT 13/11 A3001 RMK A01 T01340108  RH  084%=      5-min Rain = 0
KCL2 111321Z 34016G21KT 13/11 A3002 RMK A01 T01330108  RH  085%=      5-min Rain = 0
KCL2 111322Z 34018KT 13/11 A3002 RMK A01 T01330108  RH  085%=      5-min Rain = 0
KCL2 111323Z 33019G25KT 13/11 A3002 RMK A01 T01330108  RH  085%=      5-min Rain = 0
KCL2 111324Z 35016KT 13/11 A3002 RMK A01 T01330108  RH  085%=      5-min Rain = 0
KCL2 111325Z 34016G21KT 13/11 A3002 RMK A01 T01320108  RH  085%=      5-min Rain = 0
KCL2 111326Z 34020G25KT 13/11 A3002 RMK A01 T01320109  RH  086%=      5-min Rain = 0
KCL2 111327Z 34017KT 13/11 A3002 RMK A01 T01320109  RH  086%=      5-min Rain = 0
KCL2 111328Z 33013KT 13/11 A3002 RMK A01 T01320109  RH  086%=      5-min Rain = 0
KCL2 111329Z 34018G23KT 13/11 A3003 RMK A01 T01310109  RH  086%=      5-min Rain = 0
KCL2 111330Z 34018G25KT 13/11 A3002 RMK A01 T01310110  RH  087%=      5-min Rain = 0
KCL2 111331Z 34023G29KT 13/11 A3003 RMK A01 T01310110  RH  087%=      5-min Rain = 0
KCL2 111332Z 34020G25KT 13/11 A3003 RMK A01 T01300110  RH  087%=      5-min Rain = 0
KCL2 111333Z 34023G31KT 13/11 A3003 RMK A01 T01290109  RH  087%=      5-min Rain = 0
KCL2 111334Z 34031KT 12/10 A3003 RMK A01 T01230099  RH  085%=      5-min Rain = 0
KCL2 111335Z 34026G31KT 12/09 A3004 RMK A01 T01150092  RH  086%=      5-min Rain = 0
KCL2 111336Z 34029G34KT 11/09 A3004 RMK A01 T01100089  RH  087%=      5-min Rain = 0
KCL2 111337Z 34023G31KT 11/09 A3004 RMK A01 T01050087  RH  088%=      5-min Rain = 0
KCL2 111338Z 34020KT 10/09 A3005 RMK A01 T01030087  RH  090%=      5-min Rain = 0
KCL2 111339Z 34018G26KT 10/09 A3005 RMK A01 T01020087  RH  091%=      5-min Rain = 0
KCL2 111340Z 35024G30KT 10/09 A3005 RMK A01 T01010087  RH  091%=      5-min Rain = 0
KCL2 111341Z 35026G33KT 10/09 A3005 RMK A01 T00980085  RH  091%=      5-min Rain = 0
KCL2 111342Z 34026G34KT 10/08 A3006 RMK A01 T00960082  RH  091%=      5-min Rain = 0
KCL2 111343Z 35027G32KT 09/07 A3006 RMK A01 T00910074  RH  089%=      5-min Rain = 0
KCL2 111344Z 36025G31KT 09/07 A3006 RMK A01 T00860068  RH  088%=      5-min Rain = 0
KCL2 111345Z 36025G33KT 08/07 A3007 RMK A01 T00840066  RH  088%=      5-min Rain = 0
KCL2 111346Z 36026G31KT 08/06 A3007 RMK A01 T00820064  RH  088%=      5-min Rain = 0
KCL2 111347Z 36025G35KT 08/06 A3007 RMK A01 T00810063  RH  088%=      5-min Rain = 0
KCL2 111348Z 35027KT 08/06 A3007 RMK A01 T00800062  RH  089%=      5-min Rain = 0
KCL2 111349Z 35021KT 08/06 A3007 RMK A01 T00790061  RH  089%=      5-min Rain = 0
KCL2 111350Z 35017KT 08/06 A3008 RMK A01 T00780061  RH  089%=      5-min Rain = 0
KCL2 111351Z 36025G31KT 08/06 A3008 RMK A01 T00770060  RH  089%=      5-min Rain = 0
KCL2 111352Z 00026G33KT 08/06 A3008 RMK A01 T00760059  RH  089%=      5-min Rain = 0
KCL2 111353Z 00028G38KT 07/06 A3008 RMK A01 T00740056  RH  088%=      5-min Rain = 0
KCL2 111354Z 36021G28KT 07/06 A3008 RMK A01 T00730055  RH  088%=      5-min Rain = 0
KCL2 111355Z 00022G27KT 07/06 A3008 RMK A01 T00730055  RH  088%=      5-min Rain = 0
KCL2 111356Z 36026G31KT 07/06 A3009 RMK A01 T00720055  RH  089%=      5-min Rain = 0
KCL2 111357Z 00024G33KT 07/05 A3009 RMK A01 T00720054  RH  089%=      5-min Rain = 0
KCL2 111358Z 00021G28KT 07/06 A3009 RMK A01 T00710055  RH  089%=      5-min Rain = 0
KCL2 111359Z 36019G24KT 07/06 A3009 RMK A01 T00710055  RH  090%=      5-min Rain = 0
KCL2 111400Z 36023G29KT 07/06 A301 RMK A01 T00710056  RH  090%=      5-min Rain = 0
KCL2 111401Z 00022G30KT 07/06 A301 RMK A01 T00700055  RH  090%=      5-min Rain = 0
KCL2 111402Z 36022G29KT 07/06 A301 RMK A01 T00690056  RH  091%=      5-min Rain = 0
KCL2 111403Z 36024G29KT 07/06 A301 RMK A01 T00690056  RH  091%=      5-min Rain = 0
KCL2 111404Z 35020KT 07/06 A301 RMK A01 T00680056  RH  092%=      5-min Rain = 0
KCL2 111405Z 36020KT 07/06 A301 RMK A01 T00670056  RH  093%=      5-min Rain = 0
KCL2 111406Z 00019KT 07/06 A301 RMK A01 T00670057  RH  093%=      5-min Rain = 0
KCL2 111407Z 36021G26KT 07/06 A301 RMK A01 T00670057  RH  094%=      5-min Rain = 0
KCL2 111408Z 35020G25KT 07/06 A301 RMK A01 T00660057  RH  094%=      5-min Rain = 0
KCL2 111409Z 00018G26KT 07/06 A301 RMK A01 T00660057  RH  094%=      5-min Rain = 0
KCL2 111410Z 35021KT 07/06 A301 RMK A01 T00660057  RH  094%=      5-min Rain = 0
KCL2 111411Z 35026G32KT 06/06 A3011 RMK A01 T00640055  RH  094%=      5-min Rain = 0
KCL2 111412Z 35027G35KT 06/05 A3011 RMK A01 T00610052  RH  094%=      5-min Rain = 0
KCL2 111413Z 35026G34KT 06/05 A3011 RMK A01 T00590049  RH  093%=      5-min Rain = 0
KCL2 111414Z 35028G34KT 06/05 A3011 RMK A01 T00570047  RH  093%=      5-min Rain = 0
KCL2 111415Z 35028G34KT 06/05 A3011 RMK A01 T00560045  RH  092%=      5-min Rain = 0
KCL2 111416Z 35027G38KT 05/04 A3011 RMK A01 T00540042  RH  092%=      5-min Rain = 0
KCL2 111417Z 35023G30KT 05/04 A3012 RMK A01 T00530041  RH  092%=      5-min Rain = 0
KCL2 111418Z 35018G25KT 05/04 A3012 RMK A01 T00520041  RH  093%=      5-min Rain = 0
KCL2 111419Z 36024G30KT 05/04 A3012 RMK A01 T00520042  RH  093%=      5-min Rain = 0
KCL2 111420Z 36024KT 05/04 A3012 RMK A01 T00520042  RH  093%=      5-min Rain = 0
KCL2 111421Z 36024G30KT 05/04 A3013 RMK A01 T00510041  RH  093%=      5-min Rain = 0
KCL2 111422Z 36022G33KT 05/04 A3013 RMK A01 T00510041  RH  094%=      5-min Rain = 0
KCL2 111423Z 36024G29KT 05/04 A3013 RMK A01 T00500040  RH  094%=      5-min Rain = 0
KCL2 111424Z 00030G35KT 05/04 A3013 RMK A01 T00500040  RH  093%=      5-min Rain = 0
KCL2 111425Z 00028G33KT 05/04 A3013 RMK A01 T00490038  RH  093%=      5-min Rain = 0
KCL2 111426Z 00024G30KT 05/04 A3013 RMK A01 T00490038  RH  093%=      5-min Rain = 0
KCL2 111427Z 36022G27KT 05/04 A3013 RMK A01 T00480038  RH  093%=      5-min Rain = 0
KCL2 111428Z 36021KT 05/04 A3013 RMK A01 T00480039  RH  094%=      5-min Rain = 0
KCL2 111429Z 00021KT 05/04 A3014 RMK A01 T00480038  RH  094%=      5-min Rain = 0
KCL2 111430Z 00021G30KT 05/04 A3014 RMK A01 T00470038  RH  094%=      5-min Rain = 0
KCL2 111431Z 36022G28KT 05/04 A3014 RMK A01 T00460037  RH  094%=      5-min Rain = 0
KCL2 111432Z 36026G32KT 05/04 A3014 RMK A01 T00450036  RH  094%=      5-min Rain = 0
KCL2 111433Z 35025G31KT 04/04 A3014 RMK A01 T00440035  RH  093%=      5-min Rain = 0
KCL2 111434Z 35025KT 04/03 A3014 RMK A01 T00430032  RH  093%=      5-min Rain = 0
KCL2 111435Z 36026G31KT 04/03 A3014 RMK A01 T00420031  RH  092%=      5-min Rain = 0
KCL2 111436Z 00017G22KT 04/03 A3014 RMK A01 T00420031  RH  092%=      5-min Rain = 0
KCL2 111437Z 36023KT 04/03 A3014 RMK A01 T00420031  RH  093%=      5-min Rain = 0
KCL2 111438Z 00023G31KT 04/03 A3014 RMK A01 T00420031  RH  093%=      5-min Rain = 0
KCL2 111439Z 36028G40KT 04/03 A3014 RMK A01 T00410030  RH  092%=      5-min Rain = 0
KCL2 111440Z 01026G32KT 04/03 A3014 RMK A01 T00410028  RH  092%=      5-min Rain = 0
KCL2 111441Z 01026KT 04/03 A3014 RMK A01 T00400027  RH  091%=      5-min Rain = 0
KCL2 111442Z 00026G34KT 04/03 A3015 RMK A01 T00400027  RH  092%=      5-min Rain = 0
KCL2 111443Z 00031G40KT 04/03 A3015 RMK A01 T00400028  RH  092%=      5-min Rain = 0
KCL2 111444Z 00025G32KT 04/03 A3015 RMK A01 T00390027  RH  092%=      5-min Rain = 0
KCL2 111445Z 36025G31KT 04/03 A3015 RMK A01 T00390028  RH  093%=      5-min Rain = 0
KCL2 111446Z 36028G36KT 04/03 A3015 RMK A01 T00390028  RH  093%=      5-min Rain = 0
KCL2 111447Z 01024G29KT 04/03 A3015 RMK A01 T00380028  RH  093%=      5-min Rain = 0
KCL2 111448Z 36018KT 04/03 A3016 RMK A01 T00380028  RH  094%=      5-min Rain = 0
KCL2 111449Z 36024G32KT 04/03 A3016 RMK A01 T00380029  RH  094%=      5-min Rain = 0
KCL2 111450Z 36028G36KT 04/03 A3016 RMK A01 T00380029  RH  094%=      5-min Rain = 0
KCL2 111451Z 35028G33KT 04/03 A3016 RMK A01 T00370028  RH  094%=      5-min Rain = 0
KCL2 111452Z 36027G37KT 04/03 A3016 RMK A01 T00360027  RH  094%=      5-min Rain = 0
KCL2 111453Z 35025G32KT 04/03 A3016 RMK A01 T00350026  RH  093%=      5-min Rain = 0
KCL2 111454Z 34025G33KT 04/03 A3016 RMK A01 T00350025  RH  093%=      5-min Rain = 0
KCL2 111455Z 36024G32KT 03/02 A3017 RMK A01 T00340024  RH  093%=      5-min Rain = 0
KCL2 111456Z 00024G32KT 03/02 A3017 RMK A01 T00340023  RH  093%=      5-min Rain = 0
KCL2 111457Z 00019G24KT 03/02 A3017 RMK A01 T00330022  RH  093%=      5-min Rain = 0
KCL2 111458Z 36021G28KT 03/02 A3017 RMK A01 T00330022  RH  093%=      5-min Rain = 0
KCL2 111459Z 36025G33KT 03/02 A3017 RMK A01 T00330021  RH  092%=      5-min Rain = 0
KCL2 111500Z 36025KT 03/02 A3017 RMK A01 T00310019  RH  092%=      5-min Rain = 0
KCL2 111501Z 35021G27KT 03/02 A3017 RMK A01 T00310019  RH  092%=      5-min Rain = 0
KCL2 111502Z 35023G32KT 03/02 A3017 RMK A01 T00310019  RH  092%=      5-min Rain = 0
KCL2 111503Z 36020G29KT 03/02 A3017 RMK A01 T00310019  RH  092%=      5-min Rain = 0
KCL2 111504Z 00019G24KT 03/02 A3018 RMK A01 T00310019  RH  092%=      5-min Rain = 0
KCL2 111505Z 36023G29KT 03/02 A3018 RMK A01 T00310019  RH  092%=      5-min Rain = 0
KCL2 111506Z 36019G25KT 03/02 A3018 RMK A01 T00300018  RH  092%=      5-min Rain = 0
KCL2 111507Z 35017G24KT 03/02 A3018 RMK A01 T00310019  RH  092%=      5-min Rain = 0
KCL2 111508Z 35021G26KT 03/02 A3018 RMK A01 T00310020  RH  092%=      5-min Rain = 0
KCL2 111509Z 36019KT 03/02 A3018 RMK A01 T00310019  RH  092%=      5-min Rain = 0
KCL2 111510Z 00019KT 03/02 A3019 RMK A01 T00320020  RH  092%=      5-min Rain = 0
KCL2 111511Z 36022G30KT 03/02 A3019 RMK A01 T00310020  RH  092%=      5-min Rain = 0
KCL2 111512Z 35027G32KT 03/02 A3019 RMK A01 T00300018  RH  092%=      5-min Rain = 0
KCL2 111513Z 35029G38KT 03/02 A3019 RMK A01 T00290016  RH  091%=      5-min Rain = 0
KCL2 111514Z 00022G27KT 03/02 A3019 RMK A01 T00280015  RH  092%=      5-min Rain = 0
KCL2 111515Z 00019KT 03/02 A3019 RMK A01 T00280017  RH  092%=      5-min Rain = 0
KCL2 111516Z 00023G32KT 03/02 A3019 RMK A01 T00270017  RH  093%=      5-min Rain = 0
KCL2 111517Z 00026G33KT 03/02 A3019 RMK A01 T00280017  RH  093%=      5-min Rain = 0
KCL2 111518Z 00019G24KT 03/02 A3019 RMK A01 T00280017  RH  093%=      5-min Rain = 0
KCL2 111519Z 01020G28KT 03/02 A3019 RMK A01 T00280018  RH  093%=      5-min Rain = 0
KCL2 111520Z 01017G23KT 03/02 A3019 RMK A01 T00280018  RH  093%=      5-min Rain = 0
KCL2 111521Z 36023G29KT 03/02 A3019 RMK A01 T00280018  RH  093%=      5-min Rain = 0
KCL2 111522Z 00024G29KT 03/02 A302 RMK A01 T00280018  RH  093%=      5-min Rain = 0
KCL2 111523Z 00024G30KT 03/02 A302 RMK A01 T00280017  RH  093%=      5-min Rain = 0
KCL2 111524Z 01024KT 03/02 A302 RMK A01 T00270017  RH  093%=      5-min Rain = 0
KCL2 111525Z 00023G28KT 03/02 A302 RMK A01 T00270017  RH  093%=      5-min Rain = 0
KCL2 111526Z 00024G31KT 03/02 A302 RMK A01 T00270018  RH  094%=      5-min Rain = 0
KCL2 111527Z 00020G25KT 03/02 A302 RMK A01 T00270018  RH  094%=      5-min Rain = 0
KCL2 111528Z 36019G26KT 03/02 A3021 RMK A01 T00270018  RH  094%=      5-min Rain = 0
KCL2 111529Z 36021G26KT 03/02 A3021 RMK A01 T00270019  RH  095%=      5-min Rain = 0
KCL2 111530Z 36020G25KT 03/02 A3021 RMK A01 T00260019  RH  095%=      5-min Rain = 0
KCL2 111531Z 00015G22KT 03/02 A3021 RMK A01 T00260019  RH  095%=      5-min Rain = 0
KCL2 111532Z 35021KT 03/02 A3021 RMK A01 T00270020  RH  095%=      5-min Rain = 0
KCL2 111533Z 35021KT 03/02 A3021 RMK A01 T00270020  RH  095%=      5-min Rain = 0
KCL2 111534Z 00023KT 03/02 A3021 RMK A01 T00260020  RH  095%=      5-min Rain = 0
KCL2 111535Z 35024G33KT 03/02 A3021 RMK A01 T00260020  RH  095%=      5-min Rain = 0
KCL2 111536Z 35026KT 03/02 A3022 RMK A01 T00250018  RH  095%=      5-min Rain = 0
KCL2 111537Z 35020G26KT 02/02 A3022 RMK A01 T00240017  RH  095%=      5-min Rain = 0
KCL2 111538Z 35021G27KT 02/02 A3022 RMK A01 T00230017  RH  095%=      5-min Rain = 0
KCL2 111539Z 34027G36KT 02/02 A3022 RMK A01 T00230016  RH  095%=      5-min Rain = 0
KCL2 111540Z 35025G31KT 02/02 A3022 RMK A01 T00220015  RH  095%=      5-min Rain = 0
KCL2 111541Z 35024G30KT 02/02 A3022 RMK A01 T00210015  RH  095%=      5-min Rain = 0
KCL2 111542Z 35022G29KT 02/01 A3023 RMK A01 T00210014  RH  095%=      5-min Rain = 0
KCL2 111543Z 36020G27KT 02/01 A3023 RMK A01 T00210014  RH  096%=      5-min Rain = 0
KCL2 111544Z 00021G27KT 02/02 A3023 RMK A01 T00210015  RH  096%=      5-min Rain = 0
KCL2 111545Z 36020KT 02/02 A3023 RMK A01 T00210015  RH  096%=      5-min Rain = 0
KCL2 111546Z 35018G25KT 02/02 A3024 RMK A01 T00210015  RH  096%=      5-min Rain = 0
KCL2 111547Z 35020G25KT 02/02 A3024 RMK A01 T00210015  RH  096%=      5-min Rain = 0
KCL2 111548Z 35024G30KT 02/02 A3024 RMK A01 T00210015  RH  096%=      5-min Rain = 0
KCL2 111549Z 35026KT 02/01 A3024 RMK A01 T00200014  RH  096%=      5-min Rain = 0
KCL2 111550Z 35024G29KT 02/01 A3024 RMK A01 T00180012  RH  095%=      5-min Rain = 0
KCL2 111551Z 35024KT 02/01 A3024 RMK A01 T00170010  RH  095%=      5-min Rain = 0
KCL2 111552Z 35024G30KT 02/01 A3024 RMK A01 T00170010  RH  095%=      5-min Rain = 0
KCL2 111553Z 35022G28KT 02/01 A3024 RMK A01 T00160010  RH  096%=      5-min Rain = 0
KCL2 111554Z 35018G24KT 02/01 A3024 RMK A01 T00160009  RH  096%=      5-min Rain = 0
KCL2 111555Z 35022G27KT 02/01 A3025 RMK A01 T00160010  RH  096%=      5-min Rain = 0
KCL2 111556Z 35020G26KT 02/01 A3025 RMK A01 T00160010  RH  096%=      5-min Rain = 0
KCL2 111557Z 35019KT 02/01 A3025 RMK A01 T00160010  RH  096%=      5-min Rain = 0
KCL2 111558Z 36020KT 02/01 A3025 RMK A01 T00150010  RH  096%=      5-min Rain = 0
KCL2 111559Z 35020G25KT 02/01 A3025 RMK A01 T00150009  RH  096%=      5-min Rain = 0
KCL2 111600Z 35022G29KT 01/01 A3026 RMK A01 T00140009  RH  096%=      5-min Rain = 0
KCL2 111601Z 35021G26KT 01/01 A3026 RMK A01 T00140008  RH  096%=      5-min Rain = 0
KCL2 111602Z 35023G32KT 01/01 A3026 RMK A01 T00140008  RH  096%=      5-min Rain = 0
KCL2 111603Z 35028G34KT 01/01 A3026 RMK A01 T00130007  RH  096%=      5-min Rain = 0
KCL2 111604Z 35024G32KT 01/01 A3026 RMK A01 T00120005  RH  096%=      5-min Rain = 0
KCL2 111605Z 35026G31KT 01/01 A3026 RMK A01 T00110005  RH  096%=      5-min Rain = 0
KCL2 111606Z 34022G29KT 01/01 A3026 RMK A01 T00110005  RH  096%=      5-min Rain = 0
KCL2 111607Z 36025KT 01/00 A3026 RMK A01 T00110004  RH  096%=      5-min Rain = 0
KCL2 111608Z 35024G31KT 01/00 A3026 RMK A01 T00100004  RH  096%=      5-min Rain = 0
KCL2 111609Z 35025G31KT 01/00 A3026 RMK A01 T00100003  RH  096%=      5-min Rain = 0
KCL2 111610Z 35021G28KT 01/00 A3026 RMK A01 T00090003  RH  096%=      5-min Rain = 0
KCL2 111611Z 00024KT 01/00 A3026 RMK A01 T00100003  RH  096%=      5-min Rain = 0
KCL2 111612Z 36015G24KT 01/00 A3026 RMK A01 T00090003  RH  096%=      5-min Rain = 0
KCL2 111613Z 35021G27KT 01/00 A3027 RMK A01 T00090003  RH  096%=      5-min Rain = 0
KCL2 111614Z 35022G32KT 01/00 A3026 RMK A01 T00090003  RH  096%=      5-min Rain = 0
KCL2 111615Z 35025KT 01/00 A3027 RMK A01 T00090003  RH  096%=      5-min Rain = 0
KCL2 111616Z 36024G31KT 01/00 A3027 RMK A01 T00080002  RH  095%=      5-min Rain = 0
KCL2 111617Z 35021G26KT 01/00 A3027 RMK A01 T00080002  RH  095%=      5-min Rain = 0
KCL2 111618Z 36024G29KT 01/00 A3027 RMK A01 T00080002  RH  095%=      5-min Rain = 0
KCL2 111619Z 35024G29KT 01/00 A3027 RMK A01 T00080001  RH  095%=      5-min Rain = 0
KCL2 111620Z 36023KT 01/00 A3027 RMK A01 T00080001  RH  095%=      5-min Rain = 0
KCL2 111621Z 35024G29KT 01/00 A3027 RMK A01 T00080001  RH  095%=      5-min Rain = 0
KCL2 111622Z 35026G31KT 01/00 A3028 RMK A01 T00080001  RH  095%=      5-min Rain = 0
KCL2 111623Z 36025KT 01/00 A3028 RMK A01 T000800-0  RH  095%=      5-min Rain = 0
KCL2 111624Z 35021KT 01/00 A3028 RMK A01 T000700-0  RH  094%=      5-min Rain = 0
KCL2 111625Z 35022G28KT 01/00 A3028 RMK A01 T000700-0  RH  095%=      5-min Rain = 0
KCL2 111626Z 35025G32KT 01/M00 A3028 RMK A01 T00071001  RH  095%=      5-min Rain = 0
KCL2 111627Z 35023KT 01/M00 A3028 RMK A01 T00061001  RH  095%=      5-min Rain = 0
KCL2 111628Z 36018KT 01/M00 A3028 RMK A01 T00061002  RH  095%=      5-min Rain = 0
KCL2 111629Z 36025G31KT 01/M00 A3028 RMK A01 T00061001  RH  095%=      5-min Rain = 0
KCL2 111630Z 36022KT 01/M00 A3029 RMK A01 T00061001  RH  095%=      5-min Rain = 0
KCL2 111631Z 36023G30KT 01/M00 A3029 RMK A01 T00061001  RH  095%=      5-min Rain = 0
KCL2 111632Z 35021G30KT 01/M00 A3029 RMK A01 T00061001  RH  095%=      5-min Rain = 0
KCL2 111633Z 00022G27KT 01/M00 A3029 RMK A01 T00051002  RH  095%=      5-min Rain = 0
KCL2 111634Z 36021G26KT 01/M00 A3029 RMK A01 T00051002  RH  095%=      5-min Rain = 0
KCL2 111635Z 35018G24KT 01/M00 A3029 RMK A01 T00051002  RH  095%=      5-min Rain = 0
KCL2 111636Z 00023G28KT 01/M00 A3029 RMK A01 T00051002  RH  095%=      5-min Rain = 0
KCL2 111637Z 01022G27KT 01/M00 A3029 RMK A01 T00051003  RH  095%=      5-min Rain = 0
KCL2 111638Z 35015G21KT 01/M00 A3029 RMK A01 T00051003  RH  095%=      5-min Rain = 0
KCL2 111639Z 36015G21KT 01/M00 A3029 RMK A01 T00061001  RH  095%=      5-min Rain = 0
KCL2 111640Z 35020G27KT 01/M00 A3029 RMK A01 T00061001  RH  095%=      5-min Rain = 0
KCL2 111641Z 36023KT 01/M00 A303 RMK A01 T00061001  RH  095%=      5-min Rain = 0
KCL2 111642Z 36017G22KT 01/M00 A303 RMK A01 T00051002  RH  095%=      5-min Rain = 0
KCL2 111643Z 35023KT 01/M00 A303 RMK A01 T00051002  RH  095%=      5-min Rain = 0
KCL2 111644Z 00020G27KT 01/M00 A303 RMK A01 T00051002  RH  095%=      5-min Rain = 0
KCL2 111645Z 00018KT 01/M00 A303 RMK A01 T00051002  RH  095%=      5-min Rain = 0
KCL2 111646Z 36018G23KT 01/M00 A303 RMK A01 T00051002  RH  095%=      5-min Rain = 0
KCL2 111647Z 00018KT 01/M00 A303 RMK A01 T00051002  RH  095%=      5-min Rain = 0
KCL2 111648Z 00019G26KT 01/M00 A303 RMK A01 T00061001  RH  096%=      5-min Rain = 0
KCL2 111649Z 36019G26KT 01/M00 A303 RMK A01 T00051001  RH  095%=      5-min Rain = 0
KCL2 111650Z 35020KT 01/M00 A303 RMK A01 T00051002  RH  095%=      5-min Rain = 0
KCL2 111651Z 35024KT 00/M00 A303 RMK A01 T00041002  RH  095%=      5-min Rain = 0
KCL2 111652Z 35021KT 00/M00 A303 RMK A01 T00041003  RH  095%=      5-min Rain = 0
KCL2 111653Z 35016G21KT 00/M00 A3031 RMK A01 T00041003  RH  095%=      5-min Rain = 0
KCL2 111654Z 35018G23KT 00/M00 A3031 RMK A01 T00031003  RH  096%=      5-min Rain = 0
KCL2 111655Z 35019G24KT 00/M00 A3031 RMK A01 T00031003  RH  096%=      5-min Rain = 0
KCL2 111656Z 35019G24KT 00/M00 A3031 RMK A01 T00031003  RH  096%=      5-min Rain = 0
KCL2 111657Z 35020G26KT 00/M00 A3031 RMK A01 T00031003  RH  096%=      5-min Rain = 0
KCL2 111658Z 35018KT 00/M00 A3031 RMK A01 T00031003  RH  096%=      5-min Rain = 0
KCL2 111659Z 34019KT 00/M00 A3031 RMK A01 T00031003  RH  096%=      5-min Rain = 0
KCL2 111700Z 35018G25KT 00/M00 A3031 RMK A01 T00021003  RH  096%=      5-min Rain = 0
KCL2 111701Z 36016KT 00/M00 A3031 RMK A01 T00031002  RH  096%=      5-min Rain = 0
KCL2 111702Z 35020G26KT 00/M00 A3031 RMK A01 T00031002  RH  097%=      5-min Rain = 0
KCL2 111703Z 36022KT 00/M00 A3031 RMK A01 T00031002  RH  097%=      5-min Rain = 0
KCL2 111704Z 35021G30KT 00/M00 A3031 RMK A01 T00021003  RH  096%=      5-min Rain = 0
KCL2 111705Z 35020G25KT 00/M00 A3031 RMK A01 T00021003  RH  096%=      5-min Rain = 0
KCL2 111706Z 00018G23KT 00/M00 A3031 RMK A01 T00021003  RH  096%=      5-min Rain = 0
KCL2 111707Z 00022G28KT 00/M00 A3031 RMK A01 T00021003  RH  096%=      5-min Rain = 0
KCL2 111708Z 36026KT 00/M00 A3031 RMK A01 T00021004  RH  096%=      5-min Rain = 0
KCL2 111709Z 01018G23KT 00/M01 A3031 RMK A01 T00011005  RH  096%=      5-min Rain = 0
KCL2 111710Z 00021G26KT 00/M00 A3031 RMK A01 T00011004  RH  096%=      5-min Rain = 0
KCL2 111711Z 00019G25KT 00/M01 A3031 RMK A01 T00011005  RH  096%=      5-min Rain = 0
KCL2 111712Z 00017KT 00/M01 A3031 RMK A01 T00011005  RH  096%=      5-min Rain = 0
KCL2 111713Z 36017G23KT 00/M00 A3031 RMK A01 T00021004  RH  096%=      5-min Rain = 0
KCL2 111714Z 36022G28KT 00/M01 A3031 RMK A01 T00011005  RH  096%=      5-min Rain = 0
KCL2 111715Z 35021G27KT 00/01 A3031 RMK A01 T00-000-6  RH  096%=      5-min Rain = 0
KCL2 111716Z 35019G27KT M00/M01 A3031 RMK A01 T10011007  RH  096%=      5-min Rain = 0
KCL2 111717Z 34020G25KT M00/M01 A3031 RMK A01 T10011008  RH  096%=      5-min Rain = 0
KCL2 111718Z 35020G25KT M00/M01 A3031 RMK A01 T10021008  RH  096%=      5-min Rain = 0
KCL2 111719Z 35019KT M00/M01 A3032 RMK A01 T10031009  RH  096%=      5-min Rain = 0
KCL2 111720Z 35015KT M00/M01 A3032 RMK A01 T10031009  RH  096%=      5-min Rain = 0
KCL2 111721Z 35016G22KT M00/M01 A3032 RMK A01 T10021008  RH  096%=      5-min Rain = 0
KCL2 111722Z 35017G23KT M00/M01 A3032 RMK A01 T10021007  RH  096%=      5-min Rain = 0
KCL2 111723Z 35017G22KT M00/M01 A3032 RMK A01 T10021008  RH  096%=      5-min Rain = 0
KCL2 111724Z 35018KT M00/M01 A3032 RMK A01 T10031009  RH  096%=      5-min Rain = 0
KCL2 111725Z 35019G27KT M00/M01 A3032 RMK A01 T10041009  RH  096%=      5-min Rain = 0
KCL2 111726Z 36021KT M00/M01 A3032 RMK A01 T10041010  RH  096%=      5-min Rain = 0
KCL2 111727Z 35022G28KT M01/M01 A3032 RMK A01 T10051011  RH  096%=      5-min Rain = 0
KCL2 111728Z 00024G34KT M01/M01 A3032 RMK A01 T10061012  RH  096%=      5-min Rain = 0
KCL2 111729Z 00027G34KT M01/M01 A3032 RMK A01 T10071013  RH  095%=      5-min Rain = 0
KCL2 111730Z 35024KT M01/M01 A3032 RMK A01 T10071014  RH  095%=      5-min Rain = 0
KCL2 111731Z 36021G28KT M01/M01 A3032 RMK A01 T10081014  RH  095%=      5-min Rain = 0
KCL2 111732Z 00026G31KT M01/M01 A3032 RMK A01 T10071014  RH  095%=      5-min Rain = 0
KCL2 111733Z 00024KT M01/M02 A3032 RMK A01 T10081015  RH  095%=      5-min Rain = 0
KCL2 111734Z 36019G25KT M01/M02 A3032 RMK A01 T10081016  RH  095%=      5-min Rain = 0
KCL2 111735Z 01021G28KT M01/M02 A3032 RMK A01 T10071015  RH  095%=      5-min Rain = 0
KCL2 111736Z 00020G27KT M01/M02 A3032 RMK A01 T10071015  RH  094%=      5-min Rain = 0
KCL2 111737Z 01021KT M01/M02 A3032 RMK A01 T10071016  RH  094%=      5-min Rain = 0
KCL2 111738Z 36018G25KT M01/M02 A3033 RMK A01 T10071016  RH  094%=      5-min Rain = 0
KCL2 111739Z 00020G25KT M01/M02 A3033 RMK A01 T10071016  RH  094%=      5-min Rain = 0
KCL2 111740Z 36018KT M01/M02 A3032 RMK A01 T10071016  RH  094%=      5-min Rain = 0
KCL2 111741Z 00021G28KT M01/M02 A3032 RMK A01 T10071016  RH  094%=      5-min Rain = 0
KCL2 111742Z 36020G25KT M01/M02 A3032 RMK A01 T10081017  RH  094%=      5-min Rain = 0
KCL2 111743Z 36022KT M01/M02 A3032 RMK A01 T10081017  RH  094%=      5-min Rain = 0
KCL2 111744Z 00018KT M01/M02 A3032 RMK A01 T10081017  RH  094%=      5-min Rain = 0
KCL2 111745Z 35020G28KT M01/M02 A3032 RMK A01 T10081016  RH  094%=      5-min Rain = 0
KCL2 111746Z 35020KT M01/M02 A3032 RMK A01 T10091018  RH  094%=      5-min Rain = 0
KCL2 111747Z 35023G30KT M01/M02 A3033 RMK A01 T10101018  RH  094%=      5-min Rain = 0
KCL2 111748Z 34022G28KT M01/M02 A3033 RMK A01 T10111020  RH  094%=      5-min Rain = 0
KCL2 111749Z 35019G24KT M01/M02 A3033 RMK A01 T10111020  RH  094%=      5-min Rain = 0
KCL2 111750Z 35018KT M01/M02 A3033 RMK A01 T10121020  RH  094%=      5-min Rain = 0
KCL2 111751Z 35019G25KT M01/M02 A3033 RMK A01 T10121020  RH  094%=      5-min Rain = 0
KCL2 111752Z 34020G26KT M01/M02 A3033 RMK A01 T10121019  RH  095%=      5-min Rain = 0
KCL2 111753Z 35022G27KT M01/M02 A3033 RMK A01 T10121020  RH  095%=      5-min Rain = 0
KCL2 111754Z 35021KT M01/M02 A3033 RMK A01 T10131020  RH  095%=      5-min Rain = 0
KCL2 111755Z 35019G24KT M01/M02 A3033 RMK A01 T10131020  RH  095%=      5-min Rain = 0
KCL2 111756Z 35016KT M01/M02 A3033 RMK A01 T10121020  RH  095%=      5-min Rain = 0
KCL2 111757Z 35020G25KT M01/M02 A3033 RMK A01 T10131020  RH  095%=      5-min Rain = 0
KCL2 111758Z 36017KT M01/M02 A3033 RMK A01 T10131020  RH  095%=      5-min Rain = 0
KCL2 111759Z 35016G23KT M01/M02 A3033 RMK A01 T10121019  RH  095%=      5-min Rain = 0
KCL2 111800Z 35018KT M01/M02 A3034 RMK A01 T10131019  RH  095%=      5-min Rain = 0
KCL2 111801Z 35019KT M01/M02 A3034 RMK A01 T10131019  RH  095%=      5-min Rain = 0
KCL2 111802Z 35016G23KT M01/M02 A3034 RMK A01 T10121019  RH  095%=      5-min Rain = 0
KCL2 111803Z 35022G29KT M01/M02 A3034 RMK A01 T10131020  RH  095%=      5-min Rain = 0
KCL2 111804Z 36019G25KT M01/M02 A3034 RMK A01 T10141021  RH  095%=      5-min Rain = 0
KCL2 111805Z 36022KT M02/M02 A3034 RMK A01 T10151023  RH  095%=      5-min Rain = 0
KCL2 111806Z 35022G27KT M02/M02 A3034 RMK A01 T10161023  RH  095%=      5-min Rain = 0
KCL2 111807Z 35022G29KT M02/M02 A3034 RMK A01 T10161024  RH  094%=      5-min Rain = 0
KCL2 111808Z 00023KT M02/M02 A3034 RMK A01 T10161024  RH  094%=      5-min Rain = 0
KCL2 111809Z 36018KT M02/M02 A3034 RMK A01 T10161024  RH  094%=      5-min Rain = 0
KCL2 111810Z 36021KT M02/M02 A3034 RMK A01 T10161024  RH  094%=      5-min Rain = 0
KCL2 111811Z 00023G28KT M02/M02 A3034 RMK A01 T10151024  RH  094%=      5-min Rain = 0
KCL2 111812Z 36020G25KT M02/M03 A3034 RMK A01 T10161025  RH  094%=      5-min Rain = 0
KCL2 111813Z 00020G25KT M02/M03 A3034 RMK A01 T10161025  RH  093%=      5-min Rain = 0
KCL2 111814Z 36021KT M02/M03 A3034 RMK A01 T10161025  RH  093%=      5-min Rain = 0
KCL2 111815Z 35018G23KT M02/M03 A3034 RMK A01 T10161026  RH  093%=      5-min Rain = 0
KCL2 111816Z 00017KT M02/M03 A3034 RMK A01 T10161026  RH  093%=      5-min Rain = 0
KCL2 111817Z 00015G21KT M02/M03 A3034 RMK A01 T10151025  RH  094%=      5-min Rain = 0
KCL2 111818Z 00019KT M02/M02 A3034 RMK A01 T10151024  RH  094%=      5-min Rain = 0
KCL2 111819Z 00020KT M02/M03 A3034 RMK A01 T10161025  RH  093%=      5-min Rain = 0
KCL2 111820Z 36022G27KT M02/M03 A3034 RMK A01 T10161025  RH  093%=      5-min Rain = 0
KCL2 111821Z 36021G28KT M02/M03 A3034 RMK A01 T10161027  RH  093%=      5-min Rain = 0
KCL2 111822Z 35020G26KT M02/M03 A3034 RMK A01 T10171028  RH  092%=      5-min Rain = 0
KCL2 111823Z 00019KT M02/M03 A3034 RMK A01 T10171029  RH  092%=      5-min Rain = 0
KCL2 111824Z 00023KT M02/M03 A3034 RMK A01 T10181029  RH  092%=      5-min Rain = 0
KCL2 111825Z 35024G29KT M02/M03 A3033 RMK A01 T10191031  RH  091%=      5-min Rain = 0
KCL2 111826Z 35021G28KT M02/M03 A3033 RMK A01 T10201032  RH  091%=      5-min Rain = 0
KCL2 111827Z 36020KT M02/M03 A3033 RMK A01 T10201032  RH  091%=      5-min Rain = 0
KCL2 111828Z 35022KT M02/M03 A3034 RMK A01 T10201032  RH  092%=      5-min Rain = 0
KCL2 111829Z 35019G24KT M02/M03 A3034 RMK A01 T10201031  RH  092%=      5-min Rain = 0
KCL2 111830Z 36016KT M02/M03 A3034 RMK A01 T10201031  RH  092%=      5-min Rain = 0
KCL2 111831Z 36016KT M02/M03 A3034 RMK A01 T10201031  RH  093%=      5-min Rain = 0
KCL2 111832Z 36016G24KT M02/M03 A3034 RMK A01 T10201030  RH  093%=      5-min Rain = 0
KCL2 111833Z 36019KT M02/M03 A3034 RMK A01 T10191029  RH  093%=      5-min Rain = 0
KCL2 111834Z 36015G20KT M02/M03 A3034 RMK A01 T10191029  RH  093%=      5-min Rain = 0
KCL2 111835Z 00018G23KT M02/M03 A3033 RMK A01 T10191029  RH  093%=      5-min Rain = 0
KCL2 111836Z 36019KT M02/M03 A3034 RMK A01 T10191029  RH  093%=      5-min Rain = 0
KCL2 111837Z 00020KT M02/M03 A3034 RMK A01 T10191030  RH  092%=      5-min Rain = 0
KCL2 111838Z 36024KT M02/M03 A3034 RMK A01 T10201031  RH  092%=      5-min Rain = 0
KCL2 111839Z 36018G26KT M02/M03 A3034 RMK A01 T10201032  RH  091%=      5-min Rain = 0
KCL2 111840Z 36017G22KT M02/M03 A3034 RMK A01 T10201032  RH  092%=      5-min Rain = 0
KCL2 111841Z 35018G25KT M02/M03 A3034 RMK A01 T10201032  RH  092%=      5-min Rain = 0
KCL2 111842Z 01018KT M02/M03 A3034 RMK A01 T10201031  RH  092%=      5-min Rain = 0
KCL2 111843Z 00017KT M02/M03 A3034 RMK A01 T10191031  RH  092%=      5-min Rain = 0
KCL2 111844Z 36019G26KT M02/M03 A3034 RMK A01 T10191031  RH  092%=      5-min Rain = 0
KCL2 111845Z 35017G22KT M02/M03 A3034 RMK A01 T10191031  RH  092%=      5-min Rain = 0
KCL2 111846Z 00012KT M02/M03 A3034 RMK A01 T10201031  RH  092%=      5-min Rain = 0
KCL2 111847Z 01016KT M02/M03 A3034 RMK A01 T10191029  RH  092%=      5-min Rain = 0
KCL2 111848Z 01016KT M02/M03 A3034 RMK A01 T10191030  RH  093%=      5-min Rain = 0
KCL2 111849Z 01015KT M02/M03 A3034 RMK A01 T10191030  RH  093%=      5-min Rain = 0
KCL2 111850Z 01017G22KT M02/M03 A3034 RMK A01 T10191030  RH  093%=      5-min Rain = 0
KCL2 111851Z 00014G20KT M02/M03 A3034 RMK A01 T10201030  RH  093%=      5-min Rain = 0
KCL2 111852Z 00017G22KT M02/M03 A3033 RMK A01 T10191029  RH  093%=      5-min Rain = 0
KCL2 111853Z 00018KT M02/M03 A3034 RMK A01 T10191030  RH  093%=      5-min Rain = 0
KCL2 111854Z 00019G24KT M02/M03 A3034 RMK A01 T10191030  RH  093%=      5-min Rain = 0
KCL2 111855Z 36019G25KT M02/M03 A3034 RMK A01 T10201031  RH  092%=      5-min Rain = 0
KCL2 111856Z 00017KT M02/M03 A3034 RMK A01 T10211032  RH  092%=      5-min Rain = 0
KCL2 111857Z 36021G26KT M02/M03 A3034 RMK A01 T10211032  RH  092%=      5-min Rain = 0
KCL2 111858Z 00017G23KT M02/M03 A3034 RMK A01 T10211033  RH  092%=      5-min Rain = 0
KCL2 111859Z 01016G23KT M02/M03 A3034 RMK A01 T10211033  RH  092%=      5-min Rain = 0
KCL2 111900Z 00016G21KT M02/M03 A3034 RMK A01 T10211032  RH  092%=      5-min Rain = 0
KCL2 111901Z 00016KT M02/M03 A3034 RMK A01 T10211032  RH  092%=      5-min Rain = 0
KCL2 111902Z 00017G23KT M02/M03 A3034 RMK A01 T10211032  RH  092%=      5-min Rain = 0
KCL2 111903Z 00019KT M02/M03 A3034 RMK A01 T10211032  RH  092%=      5-min Rain = 0
KCL2 111904Z 00018G23KT M02/M03 A3034 RMK A01 T10211032  RH  092%=      5-min Rain = 0
KCL2 111905Z 00019KT M02/M03 A3034 RMK A01 T10221033  RH  092%=      5-min Rain = 0
KCL2 111906Z 36017G24KT M02/M03 A3034 RMK A01 T10221033  RH  092%=      5-min Rain = 0
KCL2 111907Z 00017KT M02/M03 A3034 RMK A01 T10221033  RH  092%=      5-min Rain = 0
KCL2 111908Z 00013KT M02/M03 A3034 RMK A01 T10211032  RH  093%=      5-min Rain = 0
KCL2 111909Z 36016G23KT M02/M03 A3034 RMK A01 T10201030  RH  093%=      5-min Rain = 0
KCL2 111910Z 36017KT M02/M03 A3034 RMK A01 T10201029  RH  093%=      5-min Rain = 0
KCL2 111911Z 00017KT M02/M03 A3034 RMK A01 T10201030  RH  093%=      5-min Rain = 0
KCL2 111912Z 36019KT M02/M03 A3034 RMK A01 T10211031  RH  093%=      5-min Rain = 0
KCL2 111913Z 36015KT M02/M03 A3034 RMK A01 T10221032  RH  093%=      5-min Rain = 0
KCL2 111914Z 00015KT M02/M03 A3034 RMK A01 T10211031  RH  093%=      5-min Rain = 0
KCL2 111915Z 00017KT M02/M03 A3034 RMK A01 T10211030  RH  093%=      5-min Rain = 0
KCL2 111916Z 01019KT M02/M03 A3034 RMK A01 T10211030  RH  093%=      5-min Rain = 0
KCL2 111917Z 00015G21KT M02/M03 A3034 RMK A01 T10211030  RH  093%=      5-min Rain = 0
KCL2 111918Z 00018KT M02/M03 A3034 RMK A01 T10211030  RH  094%=      5-min Rain = 0
KCL2 111919Z 35019KT M02/M03 A3034 RMK A01 T10201029  RH  094%=      5-min Rain = 0
KCL2 111920Z 00018KT M02/M03 A3034 RMK A01 T10211031  RH  093%=      5-min Rain = 0
KCL2 111921Z 01017G22KT M02/M03 A3035 RMK A01 T10221031  RH  093%=      5-min Rain = 0
KCL2 111922Z 01017KT M02/M03 A3034 RMK A01 T10221032  RH  093%=      5-min Rain = 0
KCL2 111923Z 01012KT M02/M03 A3034 RMK A01 T10211031  RH  093%=      5-min Rain = 0
KCL2 111924Z 01013KT M02/M03 A3034 RMK A01 T10201029  RH  093%=      5-min Rain = 0
KCL2 111925Z 01016KT M02/M03 A3034 RMK A01 T10201029  RH  093%=      5-min Rain = 0
KCL2 111926Z 01014KT M02/M03 A3034 RMK A01 T10201029  RH  093%=      5-min Rain = 0
KCL2 111927Z 00016G21KT M02/M03 A3034 RMK A01 T10201029  RH  093%=      5-min Rain = 0
KCL2 111928Z 36013KT M02/M03 A3035 RMK A01 T10201029  RH  094%=      5-min Rain = 0
KCL2 111929Z 36012KT M02/M03 A3035 RMK A01 T10201029  RH  094%=      5-min Rain = 0
KCL2 111930Z 36013KT M02/M03 A3034 RMK A01 T10201028  RH  094%=      5-min Rain = 0
KCL2 111931Z 35014KT M02/M03 A3034 RMK A01 T10201028  RH  094%=      5-min Rain = 0
KCL2 111932Z 36013G18KT M02/M03 A3034 RMK A01 T10191027  RH  094%=      5-min Rain = 0
KCL2 111933Z 35014KT M02/M03 A3034 RMK A01 T10191027  RH  095%=      5-min Rain = 0
KCL2 111934Z 36019G24KT M02/M03 A3034 RMK A01 T10201028  RH  095%=      5-min Rain = 0
KCL2 111935Z 34020G26KT M02/M03 A3034 RMK A01 T10211029  RH  094%=      5-min Rain = 0
KCL2 111936Z 35020KT M02/M03 A3034 RMK A01 T10211030  RH  094%=      5-min Rain = 0
KCL2 111937Z 36017KT M02/M03 A3035 RMK A01 T10221030  RH  094%=      5-min Rain = 0
KCL2 111938Z 36018KT M02/M03 A3034 RMK A01 T10221030  RH  094%=      5-min Rain = 0
KCL2 111939Z 36016KT M02/M03 A3035 RMK A01 T10221030  RH  094%=      5-min Rain = 0
KCL2 111940Z 01016KT M02/M03 A3035 RMK A01 T10221030  RH  094%=      5-min Rain = 0
KCL2 111941Z 00017G22KT M02/M03 A3035 RMK A01 T10221030  RH  094%=      5-min Rain = 0
KCL2 111942Z 00016KT M02/M03 A3034 RMK A01 T10211030  RH  094%=      5-min Rain = 0
KCL2 111943Z 36011KT M02/M03 A3034 RMK A01 T10211030  RH  094%=      5-min Rain = 0
KCL2 111944Z 36014KT M02/M03 A3034 RMK A01 T10211029  RH  094%=      5-min Rain = 0
KCL2 111945Z 36013KT M02/M03 A3034 RMK A01 T10211028  RH  094%=      5-min Rain = 0
KCL2 111946Z 00013G18KT M02/M03 A3034 RMK A01 T10201028  RH  094%=      5-min Rain = 0
KCL2 111947Z 36017KT M02/M03 A3035 RMK A01 T10211029  RH  094%=      5-min Rain = 0
KCL2 111948Z 00019KT M02/M03 A3035 RMK A01 T10211030  RH  094%=      5-min Rain = 0
KCL2 111949Z 01016KT M02/M03 A3035 RMK A01 T10221031  RH  094%=      5-min Rain = 0
KCL2 111950Z 36016KT M02/M03 A3034 RMK A01 T10221031  RH  094%=      5-min Rain = 0
KCL2 111951Z 00019G24KT M02/M03 A3035 RMK A01 T10221031  RH  094%=      5-min Rain = 0
KCL2 111952Z 00020KT M02/M03 A3035 RMK A01 T10231032  RH  093%=      5-min Rain = 0
KCL2 111953Z 35015G21KT M02/M03 A3034 RMK A01 T10231033  RH  093%=      5-min Rain = 0
KCL2 111954Z 36015KT M02/M03 A3035 RMK A01 T10231033  RH  093%=      5-min Rain = 0
KCL2 111955Z 36017KT M02/M03 A3035 RMK A01 T10231032  RH  093%=      5-min Rain = 0
KCL2 111956Z 36021G26KT M02/M03 A3035 RMK A01 T10231032  RH  093%=      5-min Rain = 0
KCL2 111957Z 36015G20KT M02/M03 A3035 RMK A01 T10231033  RH  093%=      5-min Rain = 0
KCL2 111958Z 35015KT M02/M03 A3035 RMK A01 T10231033  RH  093%=      5-min Rain = 0
KCL2 111959Z 36017KT M02/M03 A3035 RMK A01 T10231033  RH  093%=      5-min Rain = 0
KCL2 112000Z 00017KT M02/M03 A3035 RMK A01 T10231032  RH  093%=      5-min Rain = 0
KCL2 112001Z 36016G21KT M02/M03 A3035 RMK A01 T10231033  RH  093%=      5-min Rain = 0
KCL2 112002Z 36015KT M02/M03 A3035 RMK A01 T10231032  RH  094%=      5-min Rain = 0
KCL2 112003Z 00015G20KT M02/M03 A3035 RMK A01 T10231032  RH  094%=      5-min Rain = 0
KCL2 112004Z 36020KT M02/M03 A3035 RMK A01 T10231032  RH  094%=      5-min Rain = 0
KCL2 112005Z 01018G24KT M02/M03 A3035 RMK A01 T10241033  RH  093%=      5-min Rain = 0
KCL2 112006Z 00018KT M02/M03 A3035 RMK A01 T10241033  RH  093%=      5-min Rain = 0
KCL2 112007Z 01016G22KT M02/M03 A3035 RMK A01 T10231033  RH  093%=      5-min Rain = 0
KCL2 112008Z 00014G19KT M02/M03 A3035 RMK A01 T10231033  RH  093%=      5-min Rain = 0
KCL2 112009Z 36016KT M02/M03 A3035 RMK A01 T10221032  RH  093%=      5-min Rain = 0
KCL2 112010Z 01019KT M02/M03 A3035 RMK A01 T10211032  RH  092%=      5-min Rain = 0
KCL2 112011Z 01018KT M02/M03 A3036 RMK A01 T10221033  RH  092%=      5-min Rain = 0
KCL2 112012Z 01016KT M02/M03 A3036 RMK A01 T10221033  RH  092%=      5-min Rain = 0
KCL2 112013Z 00014KT M02/M03 A3036 RMK A01 T10221032  RH  092%=      5-min Rain = 0
KCL2 112014Z 00017KT M02/M03 A3036 RMK A01 T10221033  RH  093%=      5-min Rain = 0
KCL2 112015Z 00016KT M02/M03 A3036 RMK A01 T10221032  RH  093%=      5-min Rain = 0
KCL2 112016Z 36016KT M02/M03 A3036 RMK A01 T10221032  RH  093%=      5-min Rain = 0
KCL2 112017Z 36015G21KT M02/M03 A3037 RMK A01 T10221032  RH  093%=      5-min Rain = 0
KCL2 112018Z 36016G22KT M02/M03 A3037 RMK A01 T10221032  RH  093%=      5-min Rain = 0
KCL2 112019Z 36019KT M02/M03 A3037 RMK A01 T10221032  RH  093%=      5-min Rain = 0
KCL2 112020Z 35017G22KT M02/M03 A3037 RMK A01 T10221034  RH  092%=      5-min Rain = 0
KCL2 112021Z 00016G21KT M02/M03 A3037 RMK A01 T10221034  RH  092%=      5-min Rain = 0
KCL2 112022Z 00017G22KT M02/M04 A3038 RMK A01 T10231035  RH  091%=      5-min Rain = 0
KCL2 112023Z 00018G23KT M02/M04 A3037 RMK A01 T10221035  RH  091%=      5-min Rain = 0
KCL2 112024Z 00017G22KT M02/M04 A3037 RMK A01 T10221036  RH  091%=      5-min Rain = 0
KCL2 112025Z 36014KT M02/M04 A3038 RMK A01 T10221035  RH  091%=      5-min Rain = 0
KCL2 112026Z 00014KT M02/M04 A3038 RMK A01 T10231035  RH  091%=      5-min Rain = 0
KCL2 112027Z 00015G20KT M02/M04 A3038 RMK A01 T10221035  RH  091%=      5-min Rain = 0
KCL2 112028Z 00012KT M02/M03 A3038 RMK A01 T10221034  RH  092%=      5-min Rain = 0
KCL2 112029Z 35014KT M02/M03 A3038 RMK A01 T10221033  RH  092%=      5-min Rain = 0
KCL2 112030Z 00018G24KT M02/M03 A3038 RMK A01 T10221033  RH  092%=      5-min Rain = 0
KCL2 112031Z 00014G21KT M02/M03 A3038 RMK A01 T10221034  RH  092%=      5-min Rain = 0
KCL2 112032Z 00013KT M02/M03 A3038 RMK A01 T10221034  RH  092%=      5-min Rain = 0
KCL2 112033Z 00013G18KT M02/M03 A3038 RMK A01 T10221033  RH  092%=      5-min Rain = 0
KCL2 112034Z 35014KT M02/M03 A3038 RMK A01 T10221033  RH  092%=      5-min Rain = 0
KCL2 112035Z 00014KT M02/M03 A3038 RMK A01 T10221032  RH  093%=      5-min Rain = 0
KCL2 112036Z 36016G21KT M02/M03 A3038 RMK A01 T10221032  RH  093%=      5-min Rain = 0
KCL2 112037Z 36017KT M02/M03 A3038 RMK A01 T10221032  RH  093%=      5-min Rain = 0
KCL2 112038Z 35014KT M02/M03 A3038 RMK A01 T10221033  RH  093%=      5-min Rain = 0
KCL2 112039Z 36013KT M02/M03 A3038 RMK A01 T10221032  RH  093%=      5-min Rain = 0
KCL2 112040Z 00014KT M02/M03 A3038 RMK A01 T10211031  RH  093%=      5-min Rain = 0
KCL2 112041Z 35013KT M02/M03 A3038 RMK A01 T10211031  RH  093%=      5-min Rain = 0
KCL2 112042Z 34015G21KT M02/M03 A3038 RMK A01 T10211030  RH  094%=      5-min Rain = 0
KCL2 112043Z 35016KT M02/M03 A3038 RMK A01 T10221031  RH  093%=      5-min Rain = 0
KCL2 112044Z 34013KT M02/M03 A3038 RMK A01 T10231033  RH  093%=      5-min Rain = 0
KCL2 112045Z 34014KT M02/M03 A3038 RMK A01 T10241033  RH  093%=      5-min Rain = 0
KCL2 112046Z 34012KT M03/M03 A3038 RMK A01 T10251034  RH  094%=      5-min Rain = 0
KCL2 112047Z 35011KT M03/M03 A3038 RMK A01 T10251033  RH  094%=      5-min Rain = 0
KCL2 112048Z 35014KT M02/M03 A3038 RMK A01 T10241032  RH  095%=      5-min Rain = 0
KCL2 112049Z 35016G22KT M03/M03 A3038 RMK A01 T10251032  RH  095%=      5-min Rain = 0
KCL2 112050Z 35015KT M03/M03 A3038 RMK A01 T10261034  RH  094%=      5-min Rain = 0
KCL2 112051Z 36013KT M03/M03 A3038 RMK A01 T10261034  RH  094%=      5-min Rain = 0
KCL2 112052Z 36016KT M03/M03 A3039 RMK A01 T10261034  RH  094%=      5-min Rain = 0
KCL2 112053Z 35015KT M03/M04 A3039 RMK A01 T10271035  RH  094%=      5-min Rain = 0
KCL2 112054Z 36014G19KT M03/M04 A3039 RMK A01 T10271035  RH  094%=      5-min Rain = 0
KCL2 112055Z 35014KT M03/M04 A3039 RMK A01 T10271036  RH  094%=      5-min Rain = 0
KCL2 112056Z 36014KT M03/M04 A3039 RMK A01 T10281036  RH  094%=      5-min Rain = 0
KCL2 112057Z 01015G21KT M03/M04 A3039 RMK A01 T10281036  RH  094%=      5-min Rain = 0
KCL2 112058Z 01014G20KT M03/M04 A3039 RMK A01 T10281036  RH  094%=      5-min Rain = 0
KCL2 112059Z 01015KT M03/M04 A3039 RMK A01 T10281037  RH  094%=      5-min Rain = 0
KCL2 112100Z 36015KT M03/M04 A3039 RMK A01 T10281037  RH  094%=      5-min Rain = 0
KCL2 112101Z 00013KT M03/M04 A3039 RMK A01 T10281037  RH  093%=      5-min Rain = 0
KCL2 112102Z 01015KT M03/M04 A3039 RMK A01 T10281037  RH  093%=      5-min Rain = 0
KCL2 112103Z 01013KT M03/M04 A3039 RMK A01 T10281037  RH  093%=      5-min Rain = 0
KCL2 112104Z 01014KT M03/M04 A3039 RMK A01 T10281037  RH  093%=      5-min Rain = 0
KCL2 112105Z 00016KT M03/M04 A3039 RMK A01 T10281037  RH  093%=      5-min Rain = 0
KCL2 112106Z 01011G17KT M03/M04 A3039 RMK A01 T10281037  RH  093%=      5-min Rain = 0
KCL2 112107Z 00011KT M03/M04 A3039 RMK A01 T10281037  RH  093%=      5-min Rain = 0
KCL2 112108Z 36014KT M03/M04 A3039 RMK A01 T10271036  RH  094%=      5-min Rain = 0
KCL2 112109Z 36018KT M03/M04 A3039 RMK A01 T10271036  RH  094%=      5-min Rain = 0
KCL2 112110Z 01016KT M03/M04 A3039 RMK A01 T10291038  RH  093%=      5-min Rain = 0
KCL2 112111Z 00014KT M03/M04 A3039 RMK A01 T10291039  RH  093%=      5-min Rain = 0
KCL2 112112Z 01015KT M03/M04 A3039 RMK A01 T10291039  RH  093%=      5-min Rain = 0
KCL2 112113Z 00019KT M03/M04 A3039 RMK A01 T10301040  RH  092%=      5-min Rain = 0
KCL2 112114Z 00018KT M03/M04 A3039 RMK A01 T10301042  RH  092%=      5-min Rain = 0
KCL2 112115Z 36016KT M03/M04 A3039 RMK A01 T10311043  RH  091%=      5-min Rain = 0
KCL2 112116Z 36013KT M03/M04 A3039 RMK A01 T10301043  RH  091%=      5-min Rain = 0
KCL2 112117Z 00013G19KT M03/M04 A3039 RMK A01 T10301043  RH  091%=      5-min Rain = 0
KCL2 112118Z 00019KT M03/M04 A304 RMK A01 T10311043  RH  091%=      5-min Rain = 0
KCL2 112119Z 00019G24KT M03/M05 A304 RMK A01 T10321046  RH  090%=      5-min Rain = 0
KCL2 112120Z 00018KT M03/M05 A304 RMK A01 T10321047  RH  090%=      5-min Rain = 0
KCL2 112121Z 36013KT M03/M05 A3039 RMK A01 T10321047  RH  090%=      5-min Rain = 0
KCL2 112122Z 00014KT M03/M05 A3039 RMK A01 T10321046  RH  090%=      5-min Rain = 0
KCL2 112123Z 00016KT M03/M05 A3039 RMK A01 T10321046  RH  090%=      5-min Rain = 0
KCL2 112124Z 01015G21KT M03/M05 A3039 RMK A01 T10311046  RH  090%=      5-min Rain = 0
KCL2 112125Z 01018KT M03/M05 A3039 RMK A01 T10311046  RH  090%=      5-min Rain = 0
KCL2 112126Z 01019G25KT M03/M05 A3039 RMK A01 T10321047  RH  089%=      5-min Rain = 0
KCL2 112127Z 01013G19KT M03/M05 A3039 RMK A01 T10321048  RH  089%=      5-min Rain = 0
KCL2 112128Z 01015G20KT M03/M05 A3039 RMK A01 T10321047  RH  089%=      5-min Rain = 0
KCL2 112129Z 01015KT M03/M05 A3039 RMK A01 T10321047  RH  089%=      5-min Rain = 0
KCL2 112130Z 01016G21KT M03/M05 A3039 RMK A01 T10321047  RH  089%=      5-min Rain = 0
KCL2 112131Z 00014G19KT M03/M05 A3039 RMK A01 T10321048  RH  089%=      5-min Rain = 0
KCL2 112132Z 01014KT M03/M05 A304 RMK A01 T10321048  RH  089%=      5-min Rain = 0
KCL2 112133Z 01014KT M03/M05 A304 RMK A01 T10321047  RH  089%=      5-min Rain = 0
KCL2 112134Z 01016KT M03/M05 A304 RMK A01 T10311047  RH  089%=      5-min Rain = 0
KCL2 112135Z 01011G16KT M03/M05 A304 RMK A01 T10311047  RH  089%=      5-min Rain = 0
KCL2 112136Z 01012KT M03/M05 A304 RMK A01 T10311046  RH  089%=      5-min Rain = 0
KCL2 112137Z 01015KT M03/M05 A304 RMK A01 T10311046  RH  089%=      5-min Rain = 0
KCL2 112138Z 00014KT M03/M05 A304 RMK A01 T10311047  RH  089%=      5-min Rain = 0
KCL2 112139Z 01015KT M03/M05 A304 RMK A01 T10311047  RH  089%=      5-min Rain = 0
KCL2 112140Z 01014G19KT M03/M05 A304 RMK A01 T10311047  RH  089%=      5-min Rain = 0
KCL2 112141Z 01011KT M03/M05 A304 RMK A01 T10311046  RH  089%=      5-min Rain = 0
KCL2 112142Z 01013KT M03/M05 A304 RMK A01 T10301045  RH  090%=      5-min Rain = 0
KCL2 112143Z 00012KT M03/M04 A304 RMK A01 T10301044  RH  090%=      5-min Rain = 0
KCL2 112144Z 36014KT M03/M05 A304 RMK A01 T10311045  RH  090%=      5-min Rain = 0
KCL2 112145Z 00016KT M03/M05 A304 RMK A01 T10311045  RH  090%=      5-min Rain = 0
KCL2 112146Z 01013KT M03/M05 A304 RMK A01 T10311045  RH  090%=      5-min Rain = 0
KCL2 112147Z 01014KT M03/M05 A304 RMK A01 T10311045  RH  090%=      5-min Rain = 0
KCL2 112148Z 00012KT M03/M05 A304 RMK A01 T10311045  RH  090%=      5-min Rain = 0
KCL2 112149Z 01012KT M03/M05 A3039 RMK A01 T10311045  RH  090%=      5-min Rain = 0
KCL2 112150Z 00014KT M03/M04 A3039 RMK A01 T10311044  RH  091%=      5-min Rain = 0
KCL2 112151Z 36013KT M03/M05 A3039 RMK A01 T10311045  RH  091%=      5-min Rain = 0
KCL2 112152Z 01010KT M03/M04 A3039 RMK A01 T10311044  RH  091%=      5-min Rain = 0
KCL2 112153Z 00013KT M03/M04 A304 RMK A01 T10301043  RH  091%=      5-min Rain = 0
KCL2 112154Z 36013KT M03/M04 A304 RMK A01 T10301042  RH  091%=      5-min Rain = 0
KCL2 112155Z 00013G18KT M03/M04 A304 RMK A01 T10301042  RH  092%=      5-min Rain = 0
KCL2 112156Z 35016KT M03/M04 A304 RMK A01 T10301042  RH  092%=      5-min Rain = 0
KCL2 112157Z 35017KT M03/M04 A304 RMK A01 T10301042  RH  092%=      5-min Rain = 0
KCL2 112158Z 35017KT M03/M04 A3041 RMK A01 T10311043  RH  091%=      5-min Rain = 0
KCL2 112159Z 36012G17KT M03/M04 A3041 RMK A01 T10311044  RH  091%=      5-min Rain = 0
KCL2 112200Z 35011KT M03/M04 A3041 RMK A01 T10311044  RH  091%=      5-min Rain = 0
KCL2 112201Z 35014G19KT M03/M04 A3041 RMK A01 T10311043  RH  091%=      5-min Rain = 0
KCL2 112202Z 00013KT M03/M04 A3041 RMK A01 T10321044  RH  091%=      5-min Rain = 0
KCL2 112203Z 00014KT M03/M05 A3041 RMK A01 T10321045  RH  091%=      5-min Rain = 0
KCL2 112204Z 00017KT M03/M05 A3041 RMK A01 T10321045  RH  091%=      5-min Rain = 0
KCL2 112205Z 00015KT M03/M05 A3041 RMK A01 T10321046  RH  090%=      5-min Rain = 0
KCL2 112206Z 00016G21KT M03/M05 A3041 RMK A01 T10321047  RH  089%=      5-min Rain = 0
KCL2 112207Z 36015KT M03/M05 A3041 RMK A01 T10321047  RH  089%=      5-min Rain = 0
KCL2 112208Z 00013KT M03/M05 A3041 RMK A01 T10321048  RH  089%=      5-min Rain = 0
KCL2 112209Z 00015KT M03/M05 A3041 RMK A01 T10321048  RH  089%=      5-min Rain = 0
KCL2 112210Z 36015KT M03/M05 A3042 RMK A01 T10321048  RH  089%=      5-min Rain = 0
KCL2 112211Z 36016KT M03/M05 A3042 RMK A01 T10311048  RH  088%=      5-min Rain = 0
KCL2 112212Z 36013KT M03/M05 A3042 RMK A01 T10321049  RH  088%=      5-min Rain = 0
KCL2 112213Z 36014KT M03/M05 A3042 RMK A01 T10311049  RH  088%=      5-min Rain = 0
KCL2 112214Z 36012KT M03/M05 A3042 RMK A01 T10321049  RH  088%=      5-min Rain = 0
KCL2 112215Z 00016KT M03/M05 A3043 RMK A01 T10321049  RH  088%=      5-min Rain = 0
KCL2 112216Z 36014KT M03/M05 A3043 RMK A01 T10321049  RH  088%=      5-min Rain = 0
KCL2 112217Z 35015KT M03/M05 A3043 RMK A01 T10311049  RH  088%=      5-min Rain = 0
KCL2 112218Z 36014KT M03/M05 A3043 RMK A01 T10311049  RH  087%=      5-min Rain = 0
KCL2 112219Z 00016KT M03/M05 A3043 RMK A01 T10311050  RH  087%=      5-min Rain = 0
KCL2 112220Z 35014KT M03/M05 A3043 RMK A01 T10311051  RH  087%=      5-min Rain = 0
KCL2 112221Z 36014G20KT M03/M05 A3043 RMK A01 T10311051  RH  086%=      5-min Rain = 0
KCL2 112222Z 00014G19KT M03/M05 A3043 RMK A01 T10311051  RH  086%=      5-min Rain = 0
KCL2 112223Z 00014G19KT M03/M05 A3043 RMK A01 T10311051  RH  086%=      5-min Rain = 0
KCL2 112224Z 00012KT M03/M05 A3043 RMK A01 T10301051  RH  086%=      5-min Rain = 0
KCL2 112225Z 00012KT M03/M05 A3043 RMK A01 T10301050  RH  086%=      5-min Rain = 0
KCL2 112226Z 00012KT M03/M05 A3043 RMK A01 T10301050  RH  086%=      5-min Rain = 0
KCL2 112227Z 00014KT M03/M05 A3043 RMK A01 T10301050  RH  086%=      5-min Rain = 0
KCL2 112228Z 35015G20KT M03/M05 A3043 RMK A01 T10301051  RH  085%=      5-min Rain = 0
KCL2 112229Z 35016KT M03/M05 A3043 RMK A01 T10301052  RH  085%=      5-min Rain = 0
KCL2 112230Z 00016KT M03/M05 A3043 RMK A01 T10301053  RH  084%=      5-min Rain = 0
KCL2 112231Z 35017KT M03/M05 A3043 RMK A01 T10301054  RH  084%=      5-min Rain = 0
KCL2 112232Z 36015G23KT M03/M05 A3043 RMK A01 T10301054  RH  084%=      5-min Rain = 0
KCL2 112233Z 36018G24KT M03/M05 A3043 RMK A01 T10301054  RH  083%=      5-min Rain = 0
KCL2 112234Z 35013KT M03/M06 A3043 RMK A01 T10301055  RH  083%=      5-min Rain = 0
KCL2 112235Z 36015KT M03/M05 A3043 RMK A01 T10311054  RH  084%=      5-min Rain = 0
KCL2 112236Z 35015KT M03/M05 A3043 RMK A01 T10301054  RH  084%=      5-min Rain = 0
KCL2 112237Z 35015KT M03/M05 A3043 RMK A01 T10311054  RH  084%=      5-min Rain = 0
KCL2 112238Z 01014KT M03/M06 A3043 RMK A01 T10311055  RH  084%=      5-min Rain = 0
KCL2 112239Z 00016KT M03/M05 A3043 RMK A01 T10311054  RH  084%=      5-min Rain = 0
KCL2 112240Z 00014KT M03/M06 A3043 RMK A01 T10311055  RH  083%=      5-min Rain = 0
KCL2 112241Z 01014KT M03/M06 A3043 RMK A01 T10301055  RH  083%=      5-min Rain = 0
KCL2 112242Z 36014KT M03/M06 A3043 RMK A01 T10301055  RH  083%=      5-min Rain = 0
KCL2 112243Z 36014G19KT M03/M06 A3043 RMK A01 T10301055  RH  083%=      5-min Rain = 0
KCL2 112244Z 36014KT M03/M06 A3044 RMK A01 T10301055  RH  083%=      5-min Rain = 0
KCL2 112245Z 01015KT M03/M06 A3044 RMK A01 T10301056  RH  082%=      5-min Rain = 0
KCL2 112246Z 00014KT M03/M06 A3044 RMK A01 T10301057  RH  082%=      5-min Rain = 0
KCL2 112247Z 01017KT M03/M06 A3043 RMK A01 T10301057  RH  082%=      5-min Rain = 0
KCL2 112248Z 00014KT M03/M06 A3043 RMK A01 T10301058  RH  081%=      5-min Rain = 0
KCL2 112249Z 00017G22KT M03/M06 A3043 RMK A01 T10301058  RH  081%=      5-min Rain = 0
KCL2 112250Z 36017KT M03/M06 A3044 RMK A01 T10301059  RH  080%=      5-min Rain = 0
KCL2 112251Z 00014KT M03/M06 A3044 RMK A01 T10301060  RH  080%=      5-min Rain = 0
KCL2 112252Z 00012G17KT M03/M06 A3044 RMK A01 T10301059  RH  081%=      5-min Rain = 0
KCL2 112253Z 00012KT M03/M06 A3044 RMK A01 T10301058  RH  081%=      5-min Rain = 0
KCL2 112254Z 00010KT M03/M06 A3044 RMK A01 T10301058  RH  081%=      5-min Rain = 0
KCL2 112255Z 01013KT M03/M06 A3044 RMK A01 T10301057  RH  082%=      5-min Rain = 0
KCL2 112256Z 00014G19KT M03/M06 A3044 RMK A01 T10301058  RH  081%=      5-min Rain = 0
KCL2 112257Z 01015KT M03/M06 A3044 RMK A01 T10301059  RH  080%=      5-min Rain = 0
KCL2 112258Z 01017KT M03/M06 A3044 RMK A01 T10301060  RH  080%=      5-min Rain = 0
KCL2 112259Z 01016KT M03/M06 A3043 RMK A01 T10301061  RH  079%=      5-min Rain = 0
KCL2 112300Z 01015KT M03/M06 A3043 RMK A01 T10301062  RH  079%=      5-min Rain = 0
KCL2 112301Z 00014G20KT M03/M06 A3044 RMK A01 T10301062  RH  079%=      5-min Rain = 0
KCL2 112302Z 36013KT M03/M06 A3044 RMK A01 T10301061  RH  079%=      5-min Rain = 0
KCL2 112303Z 00011KT M03/M06 A3044 RMK A01 T10301060  RH  080%=      5-min Rain = 0
KCL2 112304Z 36011KT M03/M06 A3044 RMK A01 T10301059  RH  080%=      5-min Rain = 0
KCL2 112305Z 00013KT M03/M06 A3044 RMK A01 T10301059  RH  080%=      5-min Rain = 0
KCL2 112306Z 00012KT M03/M06 A3045 RMK A01 T10301059  RH  080%=      5-min Rain = 0
KCL2 112307Z 00013KT M03/M06 A3045 RMK A01 T10301059  RH  080%=      5-min Rain = 0
KCL2 112308Z 36015KT M03/M06 A3045 RMK A01 T10301059  RH  080%=      5-min Rain = 0
KCL2 112309Z 01012KT M03/M06 A3045 RMK A01 T10301059  RH  080%=      5-min Rain = 0
KCL2 112310Z 36014KT M03/M06 A3045 RMK A01 T10301059  RH  080%=      5-min Rain = 0
KCL2 112311Z 36013KT M03/M06 A3045 RMK A01 T10301060  RH  080%=      5-min Rain = 0
KCL2 112312Z 36010KT M03/M06 A3045 RMK A01 T10301059  RH  080%=      5-min Rain = 0
KCL2 112313Z 01014KT M03/M06 A3045 RMK A01 T10291058  RH  081%=      5-min Rain = 0
KCL2 112314Z 36013KT M03/M06 A3045 RMK A01 T10291058  RH  080%=      5-min Rain = 0
KCL2 112315Z 36014KT M03/M06 A3045 RMK A01 T10291059  RH  080%=      5-min Rain = 0
KCL2 112316Z 00014KT M03/M06 A3045 RMK A01 T10291059  RH  080%=      5-min Rain = 0
KCL2 112317Z 35011KT M03/M06 A3045 RMK A01 T10291059  RH  080%=      5-min Rain = 0
KCL2 112318Z 36013KT M03/M06 A3045 RMK A01 T10291059  RH  080%=      5-min Rain = 0
KCL2 112319Z 36012KT M03/M06 A3045 RMK A01 T10291059  RH  080%=      5-min Rain = 0
KCL2 112320Z 00012KT M03/M06 A3045 RMK A01 T10291058  RH  080%=      5-min Rain = 0
KCL2 112321Z 36012KT M03/M06 A3045 RMK A01 T10281058  RH  080%=      5-min Rain = 0
KCL2 112322Z 36009KT M03/M06 A3045 RMK A01 T10281058  RH  080%=      5-min Rain = 0
KCL2 112323Z 00011KT M03/M06 A3046 RMK A01 T10281057  RH  080%=      5-min Rain = 0
KCL2 112324Z 00012KT M03/M06 A3046 RMK A01 T10281057  RH  081%=      5-min Rain = 0
KCL2 112325Z 35014KT M03/M06 A3046 RMK A01 T10281057  RH  080%=      5-min Rain = 0
KCL2 112326Z 36014KT M03/M06 A3046 RMK A01 T10281059  RH  079%=      5-min Rain = 0
KCL2 112327Z 35011G16KT M03/M06 A3046 RMK A01 T10281060  RH  079%=      5-min Rain = 0
KCL2 112328Z 36011KT M03/M06 A3046 RMK A01 T10281060  RH  079%=      5-min Rain = 0
KCL2 112329Z 35011KT M03/M06 A3046 RMK A01 T10281059  RH  079%=      5-min Rain = 0
KCL2 112330Z 35014KT M03/M06 A3046 RMK A01 T10281058  RH  079%=      5-min Rain = 0
KCL2 112331Z 36012KT M03/M06 A3046 RMK A01 T10281060  RH  079%=      5-min Rain = 0
KCL2 112332Z 00013KT M03/M06 A3046 RMK A01 T10281059  RH  079%=      5-min Rain = 0
KCL2 112333Z 35013KT M03/M06 A3046 RMK A01 T10281059  RH  079%=      5-min Rain = 0
KCL2 112334Z 01014KT M03/M06 A3046 RMK A01 T10271060  RH  078%=      5-min Rain = 0
KCL2 112335Z 00013KT M03/M06 A3046 RMK A01 T10271061  RH  078%=      5-min Rain = 0
KCL2 112336Z 00012KT M03/M06 A3046 RMK A01 T10271060  RH  078%=      5-min Rain = 0
KCL2 112337Z 36012G19KT M03/M06 A3046 RMK A01 T10271060  RH  078%=      5-min Rain = 0
KCL2 112338Z 36014KT M03/M06 A3046 RMK A01 T10271060  RH  078%=      5-min Rain = 0
KCL2 112339Z 36011KT M03/M06 A3046 RMK A01 T10271061  RH  078%=      5-min Rain = 0
KCL2 112340Z 36011KT M03/M06 A3046 RMK A01 T10271059  RH  078%=      5-min Rain = 0
KCL2 112341Z 01013KT M03/M06 A3046 RMK A01 T10271059  RH  079%=      5-min Rain = 0
KCL2 112342Z 35013KT M03/M06 A3046 RMK A01 T10271060  RH  078%=      5-min Rain = 0
KCL2 112343Z 35014KT M03/M06 A3046 RMK A01 T10271061  RH  077%=      5-min Rain = 0
KCL2 112344Z 35014KT M03/M06 A3046 RMK A01 T10271061  RH  077%=      5-min Rain = 0
KCL2 112345Z 36014KT M03/M06 A3046 RMK A01 T10271062  RH  077%=      5-min Rain = 0
KCL2 112346Z 00014G19KT M03/M06 A3046 RMK A01 T10271061  RH  077%=      5-min Rain = 0
KCL2 112347Z 36014KT M03/M06 A3046 RMK A01 T10271062  RH  077%=      5-min Rain = 0
KCL2 112348Z 00010KT M03/M06 A3046 RMK A01 T10271061  RH  077%=      5-min Rain = 0
KCL2 112349Z 00014G20KT M03/M06 A3046 RMK A01 T10271060  RH  078%=      5-min Rain = 0
KCL2 112350Z 00014G19KT M03/M06 A3047 RMK A01 T10271061  RH  077%=      5-min Rain = 0
KCL2 112351Z 00016KT M03/M06 A3047 RMK A01 T10271062  RH  077%=      5-min Rain = 0
KCL2 112352Z 00015G20KT M03/M06 A3047 RMK A01 T10271063  RH  076%=      5-min Rain = 0
KCL2 112353Z 01014KT M03/M06 A3047 RMK A01 T10261064  RH  075%=      5-min Rain = 0
KCL2 112354Z 00013G18KT M03/M06 A3047 RMK A01 T10261063  RH  076%=      5-min Rain = 0
KCL2 112355Z 35016KT M03/M06 A3047 RMK A01 T10261063  RH  076%=      5-min Rain = 0
KCL2 112356Z 36017KT M03/M07 A3047 RMK A01 T10261065  RH  075%=      5-min Rain = 0
KCL2 112357Z 00016KT M03/M07 A3047 RMK A01 T10261066  RH  074%=      5-min Rain = 0
KCL2 112358Z 00019G24KT M03/M07 A3047 RMK A01 T10271067  RH  074%=      5-min Rain = 0
KCL2 112359Z 00016KT M03/M07 A3047 RMK A01 T10271068  RH  074%=      5-min Rain = 0
KCL2 120000Z 36014G19KT M03/M07 A3047 RMK A01 T10271068  RH  073%=      5-min Rain = 0
KCL2 120001Z 00013KT M03/M07 A3047 RMK A01 T10271067  RH  074%=      5-min Rain = 0
KCL2 120002Z 00016KT M03/M07 A3047 RMK A01 T10271066  RH  074%=      5-min Rain = 0
KCL2 120003Z 01019KT M03/M07 A3047 RMK A01 T10271068  RH  074%=      5-min Rain = 0
KCL2 120004Z 00017G22KT M03/M07 A3047 RMK A01 T10271070  RH  073%=      5-min Rain = 0
KCL2 120005Z 00016KT M03/M07 A3047 RMK A01 T10271069  RH  073%=      5-min Rain = 0
KCL2 120006Z 01016KT M03/M07 A3047 RMK A01 T10271069  RH  073%=      5-min Rain = 0
KCL2 120007Z 01017KT M03/M07 A3047 RMK A01 T10271070  RH  073%=      5-min Rain = 0
KCL2 120008Z 00011G17KT M03/M07 A3047 RMK A01 T10271069  RH  073%=      5-min Rain = 0
KCL2 120009Z 01014G21KT M03/M07 A3047 RMK A01 T10281067  RH  074%=      5-min Rain = 0
KCL2 120010Z 01015G21KT M03/M07 A3047 RMK A01 T10271068  RH  074%=      5-min Rain = 0
KCL2 120011Z 00016KT M03/M07 A3047 RMK A01 T10281068  RH  074%=      5-min Rain = 0
KCL2 120012Z 00015G20KT M03/M07 A3047 RMK A01 T10271068  RH  073%=      5-min Rain = 0
KCL2 120013Z 00014KT M03/M07 A3047 RMK A01 T10271069  RH  073%=      5-min Rain = 0
KCL2 120014Z 01015KT M03/M07 A3047 RMK A01 T10281068  RH  074%=      5-min Rain = 0
KCL2 120015Z 01013KT M03/M07 A3047 RMK A01 T10281068  RH  074%=      5-min Rain = 0
KCL2 120016Z 01017KT M03/M07 A3047 RMK A01 T10281067  RH  074%=      5-min Rain = 0
KCL2 120017Z 00015KT M03/M07 A3047 RMK A01 T10281068  RH  074%=      5-min Rain = 0
KCL2 120018Z 36013KT M03/M07 A3047 RMK A01 T10271067  RH  074%=      5-min Rain = 0
KCL2 120019Z 01013G18KT M03/M07 A3047 RMK A01 T10271066  RH  075%=      5-min Rain = 0
KCL2 120020Z 01013KT M03/M07 A3048 RMK A01 T10271066  RH  074%=      5-min Rain = 0
KCL2 120021Z 00014KT M03/M07 A3048 RMK A01 T10271067  RH  074%=      5-min Rain = 0
KCL2 120022Z 36012KT M03/M07 A3048 RMK A01 T10271067  RH  074%=      5-min Rain = 0
KCL2 120023Z 00011KT M03/M07 A3048 RMK A01 T10281066  RH  075%=      5-min Rain = 0
KCL2 120024Z 00011KT M03/M07 A3049 RMK A01 T10271065  RH  075%=      5-min Rain = 0
KCL2 120025Z 00012G17KT M03/M07 A3048 RMK A01 T10271065  RH  075%=      5-min Rain = 0
KCL2 120026Z 00011KT M03/M07 A3048 RMK A01 T10281066  RH  075%=      5-min Rain = 0
KCL2 120027Z 36013KT M03/M07 A3048 RMK A01 T10271065  RH  075%=      5-min Rain = 0
KCL2 120028Z 36014KT M03/M07 A3048 RMK A01 T10271066  RH  075%=      5-min Rain = 0
KCL2 120029Z 00015G20KT M03/M07 A3048 RMK A01 T10271066  RH  074%=      5-min Rain = 0
KCL2 120030Z 36017KT M03/M07 A3048 RMK A01 T10271067  RH  074%=      5-min Rain = 0
KCL2 120031Z 35018G23KT M03/M07 A3048 RMK A01 T10271069  RH  073%=      5-min Rain = 0
KCL2 120032Z 00015G20KT M03/M07 A3049 RMK A01 T10271070  RH  072%=      5-min Rain = 0
KCL2 120033Z 35017G25KT M03/M07 A3049 RMK A01 T10271069  RH  073%=      5-min Rain = 0
KCL2 120034Z 36016KT M03/M07 A3049 RMK A01 T10271071  RH  072%=      5-min Rain = 0
KCL2 120035Z 36016G24KT M03/M07 A3049 RMK A01 T10281072  RH  072%=      5-min Rain = 0
KCL2 120036Z 35017G22KT M03/M07 A3049 RMK A01 T10281071  RH  072%=      5-min Rain = 0
KCL2 120037Z 36017KT M03/M07 A3048 RMK A01 T10281072  RH  072%=      5-min Rain = 0
KCL2 120038Z 36015G21KT M03/M07 A3049 RMK A01 T10291072  RH  072%=      5-min Rain = 0
KCL2 120039Z 35016KT M03/M07 A3049 RMK A01 T10281071  RH  072%=      5-min Rain = 0
KCL2 120040Z 35016KT M03/M07 A3049 RMK A01 T10281072  RH  072%=      5-min Rain = 0
KCL2 120041Z 36013KT M03/M07 A3049 RMK A01 T10281071  RH  072%=      5-min Rain = 0
KCL2 120042Z 35014KT M03/M07 A3049 RMK A01 T10281070  RH  073%=      5-min Rain = 0
KCL2 120043Z 01016G21KT M03/M07 A3049 RMK A01 T10281070  RH  073%=      5-min Rain = 0
KCL2 120044Z 36017G22KT M03/M07 A3049 RMK A01 T10281071  RH  072%=      5-min Rain = 0
KCL2 120045Z 35020KT M03/M07 A3049 RMK A01 T10281072  RH  072%=      5-min Rain = 0
KCL2 120046Z 36017G22KT M03/M07 A3049 RMK A01 T10281073  RH  071%=      5-min Rain = 0
KCL2 120047Z 35017KT M03/M07 A3049 RMK A01 T10281073  RH  071%=      5-min Rain = 0
KCL2 120048Z 35015KT M03/M07 A3049 RMK A01 T10281073  RH  071%=      5-min Rain = 0
KCL2 120049Z 35016G21KT M03/M07 A3049 RMK A01 T10291074  RH  071%=      5-min Rain = 0
KCL2 120050Z 36016KT M03/M07 A3049 RMK A01 T10281074  RH  071%=      5-min Rain = 0
KCL2 120051Z 36018KT M03/M07 A3049 RMK A01 T10281074  RH  071%=      5-min Rain = 0
KCL2 120052Z 36015G22KT M03/M08 A3049 RMK A01 T10281075  RH  070%=      5-min Rain = 0
KCL2 120053Z 36018G24KT M03/M08 A3049 RMK A01 T10281075  RH  071%=      5-min Rain = 0
KCL2 120054Z 00018G23KT M03/M08 A305 RMK A01 T10281075  RH  070%=      5-min Rain = 0
KCL2 120055Z 36016G22KT M03/M08 A305 RMK A01 T10291076  RH  070%=      5-min Rain = 0
KCL2 120056Z 36019KT M03/M08 A305 RMK A01 T10281076  RH  070%=      5-min Rain = 0
KCL2 120057Z 00018KT M03/M08 A305 RMK A01 T10291077  RH  070%=      5-min Rain = 0
KCL2 120058Z 35016G25KT M03/M08 A3051 RMK A01 T10291076  RH  070%=      5-min Rain = 0
KCL2 120059Z 35019G25KT M03/M08 A3051 RMK A01 T10291077  RH  070%=      5-min Rain = 0
KCL2 120100Z 35018G23KT M03/M08 A3051 RMK A01 T10291077  RH  069%=      5-min Rain = 0
KCL2 120101Z 35019G24KT M03/M08 A3051 RMK A01 T10291077  RH  069%=      5-min Rain = 0
KCL2 120102Z 36014KT M03/M08 A3051 RMK A01 T10291077  RH  069%=      5-min Rain = 0
KCL2 120103Z 35018G24KT M03/M08 A3051 RMK A01 T10291077  RH  069%=      5-min Rain = 0
KCL2 120104Z 35020KT M03/M08 A3051 RMK A01 T10291078  RH  069%=      5-min Rain = 0
KCL2 120105Z 36018G24KT M03/M08 A3051 RMK A01 T10291078  RH  069%=      5-min Rain = 0
KCL2 120106Z 36016KT M03/M08 A3051 RMK A01 T10291078  RH  069%=      5-min Rain = 0
KCL2 120107Z 36018KT M03/M08 A3051 RMK A01 T10291077  RH  069%=      5-min Rain = 0
KCL2 120108Z 36017G23KT M03/M08 A3051 RMK A01 T10291077  RH  069%=      5-min Rain = 0
KCL2 120109Z 36014KT M03/M08 A3051 RMK A01 T10291077  RH  069%=      5-min Rain = 0
KCL2 120110Z 35014G19KT M03/M08 A3051 RMK A01 T10291077  RH  070%=      5-min Rain = 0
KCL2 120111Z 00014KT M03/M08 A3051 RMK A01 T10291077  RH  070%=      5-min Rain = 0
KCL2 120112Z 36012KT M03/M08 A3051 RMK A01 T10291076  RH  070%=      5-min Rain = 0
KCL2 120113Z 36016KT M03/M08 A3051 RMK A01 T10291075  RH  070%=      5-min Rain = 0
KCL2 120114Z 35017KT M03/M08 A3052 RMK A01 T10291076  RH  070%=      5-min Rain = 0
KCL2 120115Z 36016KT M03/M08 A3052 RMK A01 T10291077  RH  069%=      5-min Rain = 0
KCL2 120116Z 00013KT M03/M08 A3052 RMK A01 T10291077  RH  069%=      5-min Rain = 0
KCL2 120117Z 36011KT M03/M08 A3052 RMK A01 T10291076  RH  070%=      5-min Rain = 0
KCL2 120118Z 00013KT M03/M08 A3052 RMK A01 T10291075  RH  070%=      5-min Rain = 0
KCL2 120119Z 01017KT M03/M08 A3052 RMK A01 T10291075  RH  070%=      5-min Rain = 0
KCL2 120120Z 36018KT M03/M08 A3052 RMK A01 T10291076  RH  070%=      5-min Rain = 0
KCL2 120121Z 00018KT M03/M08 A3052 RMK A01 T10281077  RH  069%=      5-min Rain = 0
KCL2 120122Z 00017KT M03/M08 A3053 RMK A01 T10281078  RH  068%=      5-min Rain = 0
KCL2 120123Z 36018KT M03/M08 A3053 RMK A01 T10281078  RH  069%=      5-min Rain = 0
KCL2 120124Z 35016KT M03/M08 A3053 RMK A01 T10281078  RH  068%=      5-min Rain = 0
KCL2 120125Z 00016KT M03/M08 A3053 RMK A01 T10281078  RH  068%=      5-min Rain = 0
KCL2 120126Z 35016KT M03/M08 A3053 RMK A01 T10281078  RH  069%=      5-min Rain = 0
KCL2 120127Z 36016KT M03/M08 A3053 RMK A01 T10291079  RH  068%=      5-min Rain = 0
KCL2 120128Z 00015KT M03/M08 A3053 RMK A01 T10291079  RH  068%=      5-min Rain = 0
KCL2 120129Z 00012KT M03/M08 A3053 RMK A01 T10291079  RH  069%=      5-min Rain = 0
KCL2 120130Z 00015G20KT M03/M08 A3053 RMK A01 T10291078  RH  069%=      5-min Rain = 0
KCL2 120131Z 01018G23KT M03/M08 A3053 RMK A01 T10291078  RH  069%=      5-min Rain = 0
KCL2 120132Z 00020KT M03/M08 A3053 RMK A01 T10291079  RH  068%=      5-min Rain = 0
KCL2 120133Z 00015G20KT M03/M08 A3053 RMK A01 T10291080  RH  068%=      5-min Rain = 0
KCL2 120134Z 00016KT M03/M08 A3053 RMK A01 T10291079  RH  068%=      5-min Rain = 0
KCL2 120135Z 01014KT M03/M08 A3052 RMK A01 T10291079  RH  069%=      5-min Rain = 0
KCL2 120136Z 00014KT M03/M08 A3052 RMK A01 T10291079  RH  068%=      5-min Rain = 0
KCL2 120137Z 00016G21KT M03/M08 A3052 RMK A01 T10291079  RH  069%=      5-min Rain = 0
KCL2 120138Z 00015KT M03/M08 A3052 RMK A01 T10291078  RH  069%=      5-min Rain = 0
KCL2 120139Z 01013KT M03/M08 A3052 RMK A01 T10291078  RH  069%=      5-min Rain = 0
KCL2 120140Z 01014KT M03/M08 A3052 RMK A01 T10291078  RH  069%=      5-min Rain = 0
KCL2 120141Z 01016G24KT M03/M08 A3052 RMK A01 T10291078  RH  069%=      5-min Rain = 0
KCL2 120142Z 01017KT M03/M08 A3052 RMK A01 T10301079  RH  069%=      5-min Rain = 0
KCL2 120143Z 02013KT M03/M08 A3052 RMK A01 T10301080  RH  068%=      5-min Rain = 0
KCL2 120144Z 36011KT M03/M08 A3053 RMK A01 T10301079  RH  069%=      5-min Rain = 0
KCL2 120145Z 00013KT M03/M08 A3053 RMK A01 T10301078  RH  069%=      5-min Rain = 0
KCL2 120146Z 00017G22KT M03/M08 A3053 RMK A01 T10301079  RH  069%=      5-min Rain = 0
KCL2 120147Z 01018KT M03/M08 A3053 RMK A01 T10301081  RH  068%=      5-min Rain = 0
KCL2 120148Z 00018KT M03/M08 A3053 RMK A01 T10301082  RH  067%=      5-min Rain = 0
KCL2 120149Z 36017KT M03/M08 A3053 RMK A01 T10301082  RH  067%=      5-min Rain = 0
KCL2 120150Z 01015G21KT M03/M08 A3053 RMK A01 T10301083  RH  067%=      5-min Rain = 0
KCL2 120151Z 00017G24KT M03/M08 A3053 RMK A01 T10301081  RH  068%=      5-min Rain = 0
KCL2 120152Z 36021KT M03/M08 A3053 RMK A01 T10301082  RH  067%=      5-min Rain = 0
KCL2 120153Z 36020G25KT M03/M08 A3053 RMK A01 T10301084  RH  066%=      5-min Rain = 0
KCL2 120154Z 00015KT M03/M08 A3053 RMK A01 T10301084  RH  066%=      5-min Rain = 0
KCL2 120155Z 01015G20KT M03/M08 A3053 RMK A01 T10301083  RH  067%=      5-min Rain = 0
KCL2 120156Z 00014KT M03/M08 A3053 RMK A01 T10301082  RH  067%=      5-min Rain = 0
KCL2 120157Z 00015KT M03/M08 A3054 RMK A01 T10301081  RH  068%=      5-min Rain = 0
KCL2 120158Z 00014KT M03/M08 A3054 RMK A01 T10301081  RH  068%=      5-min Rain = 0
KCL2 120159Z 00014G20KT M03/M08 A3054 RMK A01 T10301082  RH  067%=      5-min Rain = 0
KCL2 120200Z 36015G21KT M03/M08 A3054 RMK A01 T10301081  RH  068%=      5-min Rain = 0
KCL2 120201Z 00015KT M03/M08 A3054 RMK A01 T10301082  RH  068%=      5-min Rain = 0
KCL2 120202Z 00014G19KT M03/M08 A3054 RMK A01 T10301082  RH  068%=      5-min Rain = 0
KCL2 120203Z 01014G19KT M03/M08 A3054 RMK A01 T10301083  RH  067%=      5-min Rain = 0
KCL2 120204Z 00017KT M03/M08 A3054 RMK A01 T10301083  RH  067%=      5-min Rain = 0
KCL2 120205Z 01016KT M03/M08 A3054 RMK A01 T10311083  RH  067%=      5-min Rain = 0
KCL2 120206Z 00012KT M03/M08 A3054 RMK A01 T10311083  RH  067%=      5-min Rain = 0
KCL2 120207Z 36013G20KT M03/M08 A3055 RMK A01 T10311082  RH  068%=      5-min Rain = 0
KCL2 120208Z 01013KT M03/M08 A3055 RMK A01 T10311082  RH  068%=      5-min Rain = 0
KCL2 120209Z 01015KT M03/M08 A3055 RMK A01 T10311082  RH  068%=      5-min Rain = 0
KCL2 120210Z 00012KT M03/M08 A3055 RMK A01 T10311081  RH  068%=      5-min Rain = 0
KCL2 120211Z 00011G19KT M03/M08 A3055 RMK A01 T10311080  RH  069%=      5-min Rain = 0
KCL2 120212Z 36013G19KT M03/M08 A3055 RMK A01 T10311082  RH  068%=      5-min Rain = 0
KCL2 120213Z 00014KT M03/M08 A3055 RMK A01 T10311082  RH  068%=      5-min Rain = 0
KCL2 120214Z 01014KT M03/M08 A3055 RMK A01 T10311082  RH  068%=      5-min Rain = 0
KCL2 120215Z 01011KT M03/M08 A3055 RMK A01 T10321083  RH  068%=      5-min Rain = 0
KCL2 120216Z 01012KT M03/M08 A3055 RMK A01 T10321082  RH  068%=      5-min Rain = 0
KCL2 120217Z 01012KT M03/M08 A3055 RMK A01 T10321081  RH  069%=      5-min Rain = 0
KCL2 120218Z 01014KT M03/M08 A3055 RMK A01 T10321082  RH  068%=      5-min Rain = 0
KCL2 120219Z 01011KT M03/M08 A3055 RMK A01 T10321082  RH  068%=      5-min Rain = 0
KCL2 120220Z 01012G17KT M03/M08 A3055 RMK A01 T10321081  RH  069%=      5-min Rain = 0
KCL2 120221Z 36012KT M03/M08 A3055 RMK A01 T10311081  RH  069%=      5-min Rain = 0
KCL2 120222Z 36015KT M03/M08 A3055 RMK A01 T10321082  RH  068%=      5-min Rain = 0
KCL2 120223Z 00017KT M03/M08 A3055 RMK A01 T10321084  RH  067%=      5-min Rain = 0
KCL2 120224Z 00016KT M03/M09 A3055 RMK A01 T10321085  RH  067%=      5-min Rain = 0
KCL2 120225Z 01014KT M03/M08 A3055 RMK A01 T10321084  RH  067%=      5-min Rain = 0
KCL2 120226Z 01014KT M03/M08 A3055 RMK A01 T10321084  RH  067%=      5-min Rain = 0
KCL2 120227Z 01014KT M03/M08 A3055 RMK A01 T10321084  RH  067%=      5-min Rain = 0
KCL2 120228Z 36011KT M03/M08 A3055 RMK A01 T10321083  RH  067%=      5-min Rain = 0
KCL2 120229Z 01010KT M03/M08 A3055 RMK A01 T10311082  RH  068%=      5-min Rain = 0
KCL2 120230Z 01015KT M03/M08 A3055 RMK A01 T10311082  RH  068%=      5-min Rain = 0
KCL2 120231Z 01014KT M03/M08 A3055 RMK A01 T10321083  RH  068%=      5-min Rain = 0
KCL2 120232Z 01013KT M03/M08 A3055 RMK A01 T10321083  RH  068%=      5-min Rain = 0
KCL2 120233Z 00014KT M03/M08 A3055 RMK A01 T10321084  RH  067%=      5-min Rain = 0
KCL2 120234Z 00013KT M03/M09 A3055 RMK A01 T10321085  RH  067%=      5-min Rain = 0
KCL2 120235Z 00015KT M03/M08 A3055 RMK A01 T10321084  RH  067%=      5-min Rain = 0
KCL2 120236Z 00012KT M03/M08 A3055 RMK A01 T10321084  RH  067%=      5-min Rain = 0
KCL2 120237Z 01013G18KT M03/M08 A3055 RMK A01 T10321084  RH  068%=      5-min Rain = 0
KCL2 120238Z 01016KT M03/M08 A3055 RMK A01 T10321084  RH  068%=      5-min Rain = 0
KCL2 120239Z 01014G20KT M03/M08 A3056 RMK A01 T10321084  RH  067%=      5-min Rain = 0
KCL2 120240Z 00011KT M03/M08 A3056 RMK A01 T10331084  RH  068%=      5-min Rain = 0
KCL2 120241Z 00011KT M03/M08 A3056 RMK A01 T10331083  RH  068%=      5-min Rain = 0
KCL2 120242Z 00015G21KT M03/M08 A3056 RMK A01 T10331084  RH  068%=      5-min Rain = 0
KCL2 120243Z 00013KT M03/M09 A3056 RMK A01 T10331085  RH  067%=      5-min Rain = 0
KCL2 120244Z 36014G20KT M03/M09 A3056 RMK A01 T10331085  RH  067%=      5-min Rain = 0
KCL2 120245Z 00013KT M03/M09 A3056 RMK A01 T10331085  RH  067%=      5-min Rain = 0
KCL2 120246Z 00016KT M03/M09 A3056 RMK A01 T10331085  RH  067%=      5-min Rain = 0
KCL2 120247Z 00014KT M03/M09 A3056 RMK A01 T10331086  RH  067%=      5-min Rain = 0
KCL2 120248Z 00013KT M03/M09 A3056 RMK A01 T10331085  RH  067%=      5-min Rain = 0
KCL2 120249Z 00012KT M03/M09 A3056 RMK A01 T10321085  RH  067%=      5-min Rain = 0
KCL2 120250Z 01012KT M03/M08 A3056 RMK A01 T10331084  RH  068%=      5-min Rain = 0
KCL2 120251Z 01012KT M03/M08 A3056 RMK A01 T10321084  RH  068%=      5-min Rain = 0
KCL2 120252Z 00013KT M03/M08 A3056 RMK A01 T10331084  RH  068%=      5-min Rain = 0
KCL2 120253Z 01012KT M03/M08 A3056 RMK A01 T10331084  RH  068%=      5-min Rain = 0
KCL2 120254Z 01011KT M03/M08 A3056 RMK A01 T10331084  RH  068%=      5-min Rain = 0
KCL2 120255Z 01012KT M03/M08 A3056 RMK A01 T10331083  RH  068%=      5-min Rain = 0
KCL2 120256Z 00013G20KT M03/M08 A3056 RMK A01 T10331083  RH  068%=      5-min Rain = 0
KCL2 120257Z 36017KT M03/M08 A3056 RMK A01 T10331084  RH  068%=      5-min Rain = 0
KCL2 120258Z 01015KT M03/M09 A3055 RMK A01 T10331085  RH  067%=      5-min Rain = 0
KCL2 120259Z 01014KT M03/M09 A3056 RMK A01 T10331085  RH  067%=      5-min Rain = 0
KCL2 120300Z 01012KT M03/M09 A3056 RMK A01 T10331085  RH  067%=      5-min Rain = 0
KCL2 120301Z 01014KT M03/M08 A3056 RMK A01 T10321084  RH  068%=      5-min Rain = 0
KCL2 120302Z 00014KT M03/M08 A3056 RMK A01 T10321084  RH  068%=      5-min Rain = 0
KCL2 120303Z 01015KT M03/M08 A3056 RMK A01 T10321084  RH  067%=      5-min Rain = 0
KCL2 120304Z 01016G21KT M03/M08 A3056 RMK A01 T10321084  RH  067%=      5-min Rain = 0
KCL2 120305Z 01014G19KT M03/M08 A3056 RMK A01 T10321084  RH  067%=      5-min Rain = 0
KCL2 120306Z 00012KT M03/M08 A3056 RMK A01 T10321084  RH  067%=      5-min Rain = 0
KCL2 120307Z 01015G20KT M03/M08 A3056 RMK A01 T10321083  RH  068%=      5-min Rain = 0
KCL2 120308Z 00016G21KT M03/M08 A3056 RMK A01 T10321083  RH  068%=      5-min Rain = 0
KCL2 120309Z 00014KT M03/M08 A3056 RMK A01 T10321084  RH  067%=      5-min Rain = 0
KCL2 120310Z 01016KT M03/M08 A3056 RMK A01 T10321084  RH  067%=      5-min Rain = 0
KCL2 120311Z 00015G21KT M03/M08 A3056 RMK A01 T10321084  RH  067%=      5-min Rain = 0
KCL2 120312Z 00015KT M03/M08 A3056 RMK A01 T10311084  RH  067%=      5-min Rain = 0
KCL2 120313Z 36016KT M03/M08 A3056 RMK A01 T10321084  RH  067%=      5-min Rain = 0
KCL2 120314Z 00015KT M03/M08 A3056 RMK A01 T10321084  RH  067%=      5-min Rain = 0
KCL2 120315Z 36013KT M03/M09 A3056 RMK A01 T10311085  RH  067%=      5-min Rain = 0
KCL2 120316Z 01013KT M03/M09 A3056 RMK A01 T10321085  RH  067%=      5-min Rain = 0
KCL2 120317Z 01012G17KT M03/M08 A3056 RMK A01 T10321084  RH  067%=      5-min Rain = 0
KCL2 120318Z 00013KT M03/M08 A3056 RMK A01 T10321083  RH  068%=      5-min Rain = 0
KCL2 120319Z 00016KT M03/M08 A3056 RMK A01 T10321083  RH  068%=      5-min Rain = 0
KCL2 120320Z 00015KT M03/M08 A3056 RMK A01 T10321083  RH  067%=      5-min Rain = 0
KCL2 120321Z 36015KT M03/M08 A3056 RMK A01 T10321084  RH  067%=      5-min Rain = 0
KCL2 120322Z 00012KT M03/M09 A3056 RMK A01 T10321085  RH  067%=      5-min Rain = 0
KCL2 120323Z 36013KT M03/M08 A3056 RMK A01 T10311084  RH  067%=      5-min Rain = 0
KCL2 120324Z 00010KT M03/M08 A3056 RMK A01 T10311083  RH  067%=      5-min Rain = 0
KCL2 120325Z 36010KT M03/M08 A3057 RMK A01 T10321082  RH  068%=      5-min Rain = 0
KCL2 120326Z 36010KT M03/M08 A3057 RMK A01 T10321081  RH  069%=      5-min Rain = 0
KCL2 120327Z 01014KT M03/M08 A3057 RMK A01 T10321082  RH  068%=      5-min Rain = 0
KCL2 120328Z 36016KT M03/M08 A3057 RMK A01 T10321083  RH  068%=      5-min Rain = 0
KCL2 120329Z 36018KT M03/M08 A3057 RMK A01 T10311084  RH  067%=      5-min Rain = 0
KCL2 120330Z 01017KT M03/M09 A3057 RMK A01 T10311085  RH  066%=      5-min Rain = 0
KCL2 120331Z 01014KT M03/M09 A3057 RMK A01 T10321086  RH  066%=      5-min Rain = 0
KCL2 120332Z 01014KT M03/M09 A3057 RMK A01 T10321085  RH  066%=      5-min Rain = 0
KCL2 120333Z 01013KT M03/M09 A3057 RMK A01 T10321085  RH  067%=      5-min Rain = 0
KCL2 120334Z 01012KT M03/M08 A3057 RMK A01 T10321084  RH  067%=      5-min Rain = 0
KCL2 120335Z 01015KT M03/M09 A3057 RMK A01 T10321085  RH  067%=      5-min Rain = 0
KCL2 120336Z 01015KT M03/M09 A3057 RMK A01 T10321085  RH  067%=      5-min Rain = 0
KCL2 120337Z 00013KT M03/M09 A3057 RMK A01 T10321085  RH  066%=      5-min Rain = 0
KCL2 120338Z 01014KT M03/M09 A3057 RMK A01 T10311085  RH  067%=      5-min Rain = 0
KCL2 120339Z 01017KT M03/M09 A3057 RMK A01 T10321086  RH  066%=      5-min Rain = 0
KCL2 120340Z 01015KT M03/M09 A3057 RMK A01 T10321086  RH  066%=      5-min Rain = 0
KCL2 120341Z 01013KT M03/M09 A3057 RMK A01 T10321086  RH  066%=      5-min Rain = 0
KCL2 120342Z 01015KT M03/M09 A3057 RMK A01 T10321085  RH  066%=      5-min Rain = 0
KCL2 120343Z 02011G17KT M03/M09 A3057 RMK A01 T10321086  RH  066%=      5-min Rain = 0
KCL2 120344Z 01010KT M03/M08 A3057 RMK A01 T10321084  RH  067%=      5-min Rain = 0
KCL2 120345Z 01013KT M03/M08 A3057 RMK A01 T10311083  RH  068%=      5-min Rain = 0
KCL2 120346Z 01013KT M03/M08 A3057 RMK A01 T10311083  RH  067%=      5-min Rain = 0
KCL2 120347Z 01013KT M03/M08 A3057 RMK A01 T10311084  RH  067%=      5-min Rain = 0
KCL2 120348Z 01015KT M03/M09 A3057 RMK A01 T10321085  RH  067%=      5-min Rain = 0
KCL2 120349Z 01017G22KT M03/M09 A3057 RMK A01 T10321087  RH  066%=      5-min Rain = 0
KCL2 120350Z 01016G22KT M03/M09 A3057 RMK A01 T10321088  RH  065%=      5-min Rain = 0
KCL2 120351Z 01015KT M03/M09 A3057 RMK A01 T10321088  RH  065%=      5-min Rain = 0
KCL2 120352Z 00014KT M03/M09 A3057 RMK A01 T10321088  RH  065%=      5-min Rain = 0
KCL2 120353Z 01017KT M03/M09 A3057 RMK A01 T10321088  RH  065%=      5-min Rain = 0
KCL2 120354Z 00017KT M03/M09 A3057 RMK A01 T10321088  RH  065%=      5-min Rain = 0
KCL2 120355Z 00015G21KT M03/M09 A3058 RMK A01 T10321089  RH  065%=      5-min Rain = 0
KCL2 120356Z 00013G20KT M03/M09 A3058 RMK A01 T10321088  RH  065%=      5-min Rain = 0
KCL2 120357Z 00017KT M03/M09 A3058 RMK A01 T10321088  RH  065%=      5-min Rain = 0
KCL2 120358Z 00014KT M03/M09 A3058 RMK A01 T10321088  RH  065%=      5-min Rain = 0
KCL2 120359Z 36015KT M03/M09 A3058 RMK A01 T10321087  RH  066%=      5-min Rain = 0
KCL2 120400Z 36015G20KT M03/M09 A3057 RMK A01 T10321087  RH  066%=      5-min Rain = 0
KCL2 120401Z 00015KT M03/M09 A3057 RMK A01 T10331088  RH  065%=      5-min Rain = 0
KCL2 120402Z 00018G23KT M03/M09 A3058 RMK A01 T10321089  RH  065%=      5-min Rain = 0
KCL2 120403Z 01016G23KT M03/M09 A3058 RMK A01 T10331090  RH  065%=      5-min Rain = 0
KCL2 120404Z 01015KT M03/M09 A3058 RMK A01 T10321090  RH  064%=      5-min Rain = 0
KCL2 120405Z 01018G25KT M03/M09 A3058 RMK A01 T10321091  RH  064%=      5-min Rain = 0
KCL2 120406Z 00021KT M03/M09 A3058 RMK A01 T10331093  RH  063%=      5-min Rain = 0
KCL2 120407Z 01020KT M03/M09 A3058 RMK A01 T10331093  RH  063%=      5-min Rain = 0
KCL2 120408Z 00019G24KT M03/M09 A3058 RMK A01 T10331094  RH  063%=      5-min Rain = 0
KCL2 120409Z 36019G24KT M03/M09 A3058 RMK A01 T10341094  RH  063%=      5-min Rain = 0
KCL2 120410Z 00019KT M03/M10 A3058 RMK A01 T10331095  RH  062%=      5-min Rain = 0
KCL2 120411Z 36017KT M03/M10 A3058 RMK A01 T10331095  RH  062%=      5-min Rain = 0
KCL2 120412Z 00016KT M03/M10 A3058 RMK A01 T10341096  RH  062%=      5-min Rain = 0
KCL2 120413Z 36017KT M03/M10 A3058 RMK A01 T10341097  RH  062%=      5-min Rain = 0
KCL2 120414Z 01016KT M03/M10 A3058 RMK A01 T10341097  RH  062%=      5-min Rain = 0
KCL2 120415Z 00015KT M03/M10 A3058 RMK A01 T10341096  RH  062%=      5-min Rain = 0
KCL2 120416Z 01015KT M03/M10 A3058 RMK A01 T10341095  RH  063%=      5-min Rain = 0
KCL2 120417Z 01014KT M04/M10 A3058 RMK A01 T10351096  RH  063%=      5-min Rain = 0
KCL2 120418Z 01015KT M04/M10 A3058 RMK A01 T10351096  RH  063%=      5-min Rain = 0
KCL2 120419Z 00011KT M04/M10 A3058 RMK A01 T10351095  RH  063%=      5-min Rain = 0
KCL2 120420Z 01011KT M04/M10 A3058 RMK A01 T10351095  RH  063%=      5-min Rain = 0
KCL2 120421Z 01013G20KT M04/M10 A3058 RMK A01 T10351095  RH  063%=      5-min Rain = 0
KCL2 120422Z 01018G23KT M04/M10 A3058 RMK A01 T10351096  RH  063%=      5-min Rain = 0
KCL2 120423Z 00020KT M04/M10 A3058 RMK A01 T10351099  RH  062%=      5-min Rain = 0
KCL2 120424Z 01016G21KT M04/M10 A3058 RMK A01 T10361100  RH  061%=      5-min Rain = 0
KCL2 120425Z 01018KT M04/M10 A3058 RMK A01 T10361101  RH  061%=      5-min Rain = 0
KCL2 120426Z 01019KT M04/M10 A3058 RMK A01 T10361101  RH  061%=      5-min Rain = 0
KCL2 120427Z 01014KT M04/M10 A3058 RMK A01 T10361102  RH  061%=      5-min Rain = 0
KCL2 120428Z 01017G23KT M04/M10 A3058 RMK A01 T10371101  RH  061%=      5-min Rain = 0
KCL2 120429Z 01016KT M04/M10 A3058 RMK A01 T10371101  RH  061%=      5-min Rain = 0
KCL2 120430Z 00017G22KT M04/M10 A3058 RMK A01 T10371100  RH  061%=      5-min Rain = 0
KCL2 120431Z 01015KT M04/M10 A3058 RMK A01 T10371100  RH  062%=      5-min Rain = 0
KCL2 120432Z 01015KT M04/M10 A3058 RMK A01 T10371100  RH  062%=      5-min Rain = 0
KCL2 120433Z 01017G22KT M04/M10 A3058 RMK A01 T10371100  RH  062%=      5-min Rain = 0
KCL2 120434Z 01013KT M04/M10 A3058 RMK A01 T10381102  RH  061%=      5-min Rain = 0
KCL2 120435Z 00013KT M04/M10 A3058 RMK A01 T10371101  RH  062%=      5-min Rain = 0
KCL2 120436Z 01013KT M04/M10 A3058 RMK A01 T10381100  RH  062%=      5-min Rain = 0
KCL2 120437Z 01011KT M04/M10 A3058 RMK A01 T10381099  RH  062%=      5-min Rain = 0
KCL2 120438Z 01013G19KT M04/M10 A3058 RMK A01 T10381098  RH  063%=      5-min Rain = 0
KCL2 120439Z 00012KT M04/M10 A3058 RMK A01 T10381099  RH  063%=      5-min Rain = 0
KCL2 120440Z 00016G21KT M04/M10 A3058 RMK A01 T10381099  RH  063%=      5-min Rain = 0
KCL2 120441Z 01012KT M04/M10 A3058 RMK A01 T10381101  RH  062%=      5-min Rain = 0
KCL2 120442Z 00019KT M04/M10 A3058 RMK A01 T10381101  RH  062%=      5-min Rain = 0
KCL2 120443Z 00013KT M04/M10 A3058 RMK A01 T10381102  RH  062%=      5-min Rain = 0
KCL2 120444Z 36020G25KT M04/M10 A3058 RMK A01 T10381101  RH  062%=      5-min Rain = 0
KCL2 120445Z 01020G25KT M04/M10 A3059 RMK A01 T10391103  RH  061%=      5-min Rain = 0
KCL2 120446Z 01020G25KT M04/M10 A3058 RMK A01 T10391104  RH  061%=      5-min Rain = 0
KCL2 120447Z 01018G23KT M04/M10 A3058 RMK A01 T10391104  RH  061%=      5-min Rain = 0
KCL2 120448Z 01019G24KT M04/M10 A3058 RMK A01 T10391104  RH  061%=      5-min Rain = 0
KCL2 120449Z 00020KT M04/M11 A3058 RMK A01 T10391105  RH  060%=      5-min Rain = 0
KCL2 120450Z 01017KT M04/M10 A3058 RMK A01 T10391104  RH  061%=      5-min Rain = 0
KCL2 120451Z 01014G19KT M04/M10 A3058 RMK A01 T10391103  RH  061%=      5-min Rain = 0
KCL2 120452Z 01014KT M04/M10 A3058 RMK A01 T10391102  RH  062%=      5-min Rain = 0
KCL2 120453Z 01017G22KT M04/M10 A3058 RMK A01 T10391102  RH  062%=      5-min Rain = 0
KCL2 120454Z 00018KT M04/M10 A3059 RMK A01 T10401103  RH  062%=      5-min Rain = 0
KCL2 120455Z 00017KT M04/M10 A3058 RMK A01 T10401104  RH  061%=      5-min Rain = 0
KCL2 120456Z 01017KT M04/M10 A3058 RMK A01 T10401104  RH  061%=      5-min Rain = 0
KCL2 120457Z 00017G22KT M04/M10 A3058 RMK A01 T10401104  RH  061%=      5-min Rain = 0
KCL2 120458Z 01015KT M04/M10 A3058 RMK A01 T10401103  RH  061%=      5-min Rain = 0
KCL2 120459Z 01019KT M04/M10 A3058 RMK A01 T10401103  RH  062%=      5-min Rain = 0
KCL2 120500Z 01017KT M04/M10 A3058 RMK A01 T10401103  RH  062%=      5-min Rain = 0
KCL2 120501Z 01015G20KT M04/M10 A3058 RMK A01 T10401103  RH  062%=      5-min Rain = 0
KCL2 120502Z 00019G24KT M04/M10 A3058 RMK A01 T10401102  RH  062%=      5-min Rain = 0
KCL2 120503Z 01019G25KT M04/M10 A3058 RMK A01 T10401103  RH  062%=      5-min Rain = 0
KCL2 120504Z 01018G23KT M04/M10 A3058 RMK A01 T10401103  RH  062%=      5-min Rain = 0
KCL2 120505Z 00019G25KT M04/M10 A3058 RMK A01 T10401104  RH  062%=      5-min Rain = 0
KCL2 120506Z 01015G21KT M04/M10 A3058 RMK A01 T10411104  RH  062%=      5-min Rain = 0
KCL2 120507Z 00017G25KT M04/M10 A3058 RMK A01 T10411103  RH  062%=      5-min Rain = 0
KCL2 120508Z 01020KT M04/M10 A3058 RMK A01 T10411103  RH  062%=      5-min Rain = 0
KCL2 120509Z 01015KT M04/M10 A3058 RMK A01 T10411103  RH  062%=      5-min Rain = 0
KCL2 120510Z 01016G23KT M04/M10 A3058 RMK A01 T10411102  RH  063%=      5-min Rain = 0
KCL2 120511Z 01017G25KT M04/M10 A3058 RMK A01 T10411103  RH  062%=      5-min Rain = 0
KCL2 120512Z 01019G24KT M04/M10 A3058 RMK A01 T10411103  RH  062%=      5-min Rain = 0
KCL2 120513Z 00016G21KT M04/M10 A3059 RMK A01 T10411104  RH  062%=      5-min Rain = 0
KCL2 120514Z 00018G24KT M04/M10 A3059 RMK A01 T10411104  RH  062%=      5-min Rain = 0
KCL2 120515Z 01020G25KT M04/M10 A3059 RMK A01 T10411104  RH  062%=      5-min Rain = 0
KCL2 120516Z 00016G21KT M04/M10 A3059 RMK A01 T10421104  RH  062%=      5-min Rain = 0
KCL2 120517Z 01015KT M04/M10 A3058 RMK A01 T10421104  RH  062%=      5-min Rain = 0
KCL2 120518Z 01014G22KT M04/M10 A3058 RMK A01 T10421103  RH  063%=      5-min Rain = 0
KCL2 120519Z 00016G21KT M04/M10 A3058 RMK A01 T10421102  RH  063%=      5-min Rain = 0
KCL2 120520Z 00016KT M04/M10 A3058 RMK A01 T10421102  RH  063%=      5-min Rain = 0
KCL2 120521Z 36015G20KT M04/M10 A3058 RMK A01 T10421103  RH  063%=      5-min Rain = 0
KCL2 120522Z 01017KT M04/M10 A3058 RMK A01 T10431103  RH  063%=      5-min Rain = 0
KCL2 120523Z 01017KT M04/M10 A3058 RMK A01 T10431102  RH  063%=      5-min Rain = 0
KCL2 120524Z 01014KT M04/M10 A3058 RMK A01 T10431103  RH  063%=      5-min Rain = 0
KCL2 120525Z 01015G21KT M04/M10 A3058 RMK A01 T10421102  RH  063%=      5-min Rain = 0
KCL2 120526Z 00013KT M04/M10 A3058 RMK A01 T10421102  RH  063%=      5-min Rain = 0
KCL2 120527Z 00012G18KT M04/M10 A3058 RMK A01 T10431102  RH  064%=      5-min Rain = 0
KCL2 120528Z 01015G23KT M04/M10 A3058 RMK A01 T10431102  RH  064%=      5-min Rain = 0
KCL2 120529Z 01018G23KT M04/M10 A3058 RMK A01 T10431101  RH  064%=      5-min Rain = 0
KCL2 120530Z 00018G23KT M04/M10 A3058 RMK A01 T10431103  RH  063%=      5-min Rain = 0
KCL2 120531Z 00018KT M04/M10 A3058 RMK A01 T10431103  RH  063%=      5-min Rain = 0
KCL2 120532Z 01014KT M04/M10 A3058 RMK A01 T10431103  RH  063%=      5-min Rain = 0
KCL2 120533Z 36017KT M04/M10 A3058 RMK A01 T10431103  RH  063%=      5-min Rain = 0
KCL2 120534Z 01016G22KT M04/M10 A3058 RMK A01 T10431103  RH  063%=      5-min Rain = 0
KCL2 120535Z 00012KT M04/M10 A3058 RMK A01 T10441103  RH  063%=      5-min Rain = 0
KCL2 120536Z 00014G20KT M04/M10 A3058 RMK A01 T10441102  RH  064%=      5-min Rain = 0
KCL2 120537Z 01015KT M04/M10 A3058 RMK A01 T10441102  RH  064%=      5-min Rain = 0
KCL2 120538Z 00016KT M04/M10 A3058 RMK A01 T10441102  RH  064%=      5-min Rain = 0
KCL2 120539Z 01015KT M04/M10 A3058 RMK A01 T10441102  RH  064%=      5-min Rain = 0
KCL2 120540Z 00012KT M04/M10 A3058 RMK A01 T10441101  RH  064%=      5-min Rain = 0
KCL2 120541Z 00015G22KT M04/M10 A3058 RMK A01 T10441101  RH  065%=      5-min Rain = 0
KCL2 120542Z 00015G20KT M04/M10 A3058 RMK A01 T10441102  RH  064%=      5-min Rain = 0
KCL2 120543Z 00018KT M05/M10 A3058 RMK A01 T10451103  RH  064%=      5-min Rain = 0
KCL2 120544Z 36016KT M05/M10 A3058 RMK A01 T10451103  RH  064%=      5-min Rain = 0
KCL2 120545Z 00015KT M05/M10 A3058 RMK A01 T10451103  RH  064%=      5-min Rain = 0
KCL2 120546Z 00014KT M04/M10 A3058 RMK A01 T10441102  RH  064%=      5-min Rain = 0
KCL2 120547Z 00015G20KT M05/M10 A3059 RMK A01 T10451102  RH  064%=      5-min Rain = 0
KCL2 120548Z 00017KT M05/M10 A3059 RMK A01 T10451103  RH  064%=      5-min Rain = 0
KCL2 120549Z 00016KT M05/M10 A3059 RMK A01 T10451103  RH  064%=      5-min Rain = 0
KCL2 120550Z 00015KT M05/M10 A3059 RMK A01 T10451103  RH  064%=      5-min Rain = 0
KCL2 120551Z 01014G19KT M05/M10 A3059 RMK A01 T10451102  RH  064%=      5-min Rain = 0
KCL2 120552Z 00013KT M05/M10 A3059 RMK A01 T10451102  RH  064%=      5-min Rain = 0
KCL2 120553Z 00014KT M05/M10 A3059 RMK A01 T10451102  RH  065%=      5-min Rain = 0
KCL2 120554Z 01012KT M05/M10 A3058 RMK A01 T10461102  RH  065%=      5-min Rain = 0
KCL2 120555Z 01013KT M05/M10 A3059 RMK A01 T10451102  RH  065%=      5-min Rain = 0
KCL2 120556Z 00012KT M05/M10 A3058 RMK A01 T10461102  RH  065%=      5-min Rain = 0
KCL2 120557Z 00014KT M05/M10 A3059 RMK A01 T10461101  RH  065%=      5-min Rain = 0
KCL2 120558Z 00016KT M05/M10 A3058 RMK A01 T10461102  RH  065%=      5-min Rain = 0
KCL2 120559Z 00016KT M05/M10 A3059 RMK A01 T10461103  RH  065%=      5-min Rain = 0

Page generated in 0.075 seconds.